<?xml version="1.0" encoding="UTF-8" standalone="no" ?>
<gpx xmlns="http://www.topografix.com/GPX/1/1" xmlns:xsi="http://www.w3.org/2001/XMLSchema-instance" xsi:schemaLocation="http://www.topografix.com/GPX/1/1 http://www.topografix.com/GPX/1/1/gpx.xsd" version="1.1" creator="VisuGPX - https://www.visugpx.com">
  <metadata>
    <name>maison gare montfort</name>
    <desc><![CDATA[randonnee maison gare montfort 18 janvier 2012]]></desc>
  </metadata>
  <trk>
    <name><![CDATA[MAISON MONTFORT GARE]]></name>
    <trkseg>
      <trkpt lat="48.82454" lon="1.97618">
        <ele>142.89</ele>
        <time>2012-01-18T11:58:53Z</time>
      </trkpt>
      <trkpt lat="48.82449" lon="1.97635">
        <ele>131.36</ele>
        <time>2012-01-18T11:59:19Z</time>
      </trkpt>
      <trkpt lat="48.82455" lon="1.9764">
        <ele>125.11</ele>
        <time>2012-01-18T11:59:38Z</time>
      </trkpt>
      <trkpt lat="48.82458" lon="1.97645">
        <ele>123.19</ele>
        <time>2012-01-18T11:59:54Z</time>
      </trkpt>
      <trkpt lat="48.82459" lon="1.97644">
        <ele>123.67</ele>
        <time>2012-01-18T12:00:00Z</time>
      </trkpt>
      <trkpt lat="48.82462" lon="1.97631">
        <ele>122.71</ele>
        <time>2012-01-18T12:00:09Z</time>
      </trkpt>
      <trkpt lat="48.82469" lon="1.976">
        <ele>128.47</ele>
        <time>2012-01-18T12:00:24Z</time>
      </trkpt>
      <trkpt lat="48.82474" lon="1.97566">
        <ele>130.88</ele>
        <time>2012-01-18T12:00:40Z</time>
      </trkpt>
      <trkpt lat="48.82475" lon="1.97549">
        <ele>130.88</ele>
        <time>2012-01-18T12:00:48Z</time>
      </trkpt>
      <trkpt lat="48.82461" lon="1.97533">
        <ele>126.55</ele>
        <time>2012-01-18T12:00:58Z</time>
      </trkpt>
      <trkpt lat="48.82438" lon="1.97522">
        <ele>125.59</ele>
        <time>2012-01-18T12:01:15Z</time>
      </trkpt>
      <trkpt lat="48.82416" lon="1.97521">
        <ele>125.59</ele>
        <time>2012-01-18T12:01:31Z</time>
      </trkpt>
      <trkpt lat="48.82394" lon="1.9754">
        <ele>126.07</ele>
        <time>2012-01-18T12:01:49Z</time>
      </trkpt>
      <trkpt lat="48.82373" lon="1.97558">
        <ele>124.63</ele>
        <time>2012-01-18T12:02:06Z</time>
      </trkpt>
      <trkpt lat="48.82355" lon="1.9758">
        <ele>125.11</ele>
        <time>2012-01-18T12:02:22Z</time>
      </trkpt>
      <trkpt lat="48.82337" lon="1.97597">
        <ele>130.88</ele>
        <time>2012-01-18T12:02:37Z</time>
      </trkpt>
      <trkpt lat="48.82313" lon="1.976">
        <ele>127.99</ele>
        <time>2012-01-18T12:02:53Z</time>
      </trkpt>
      <trkpt lat="48.82313" lon="1.97597">
        <ele>126.55</ele>
        <time>2012-01-18T12:02:56Z</time>
      </trkpt>
      <trkpt lat="48.8232" lon="1.97562">
        <ele>126.55</ele>
        <time>2012-01-18T12:03:13Z</time>
      </trkpt>
      <trkpt lat="48.82324" lon="1.9753">
        <ele>125.59</ele>
        <time>2012-01-18T12:03:27Z</time>
      </trkpt>
      <trkpt lat="48.82325" lon="1.97511">
        <ele>125.59</ele>
        <time>2012-01-18T12:03:35Z</time>
      </trkpt>
      <trkpt lat="48.82329" lon="1.97477">
        <ele>125.11</ele>
        <time>2012-01-18T12:03:49Z</time>
      </trkpt>
      <trkpt lat="48.82332" lon="1.9745">
        <ele>126.07</ele>
        <time>2012-01-18T12:04:02Z</time>
      </trkpt>
      <trkpt lat="48.82339" lon="1.9741">
        <ele>126.07</ele>
        <time>2012-01-18T12:04:21Z</time>
      </trkpt>
      <trkpt lat="48.82343" lon="1.97372">
        <ele>126.07</ele>
        <time>2012-01-18T12:04:39Z</time>
      </trkpt>
      <trkpt lat="48.82348" lon="1.97343">
        <ele>127.03</ele>
        <time>2012-01-18T12:04:54Z</time>
      </trkpt>
      <trkpt lat="48.8235" lon="1.9731">
        <ele>127.51</ele>
        <time>2012-01-18T12:05:09Z</time>
      </trkpt>
      <trkpt lat="48.8235" lon="1.97303">
        <ele>127.99</ele>
        <time>2012-01-18T12:05:13Z</time>
      </trkpt>
      <trkpt lat="48.82352" lon="1.97282">
        <ele>127.51</ele>
        <time>2012-01-18T12:05:24Z</time>
      </trkpt>
      <trkpt lat="48.82356" lon="1.97247">
        <ele>127.51</ele>
        <time>2012-01-18T12:05:40Z</time>
      </trkpt>
      <trkpt lat="48.82362" lon="1.9721">
        <ele>126.55</ele>
        <time>2012-01-18T12:05:56Z</time>
      </trkpt>
      <trkpt lat="48.82365" lon="1.97174">
        <ele>124.63</ele>
        <time>2012-01-18T12:06:14Z</time>
      </trkpt>
      <trkpt lat="48.82375" lon="1.97138">
        <ele>123.67</ele>
        <time>2012-01-18T12:06:30Z</time>
      </trkpt>
      <trkpt lat="48.82378" lon="1.97125">
        <ele>122.71</ele>
        <time>2012-01-18T12:06:36Z</time>
      </trkpt>
      <trkpt lat="48.82378" lon="1.97115">
        <ele>122.71</ele>
        <time>2012-01-18T12:06:40Z</time>
      </trkpt>
      <trkpt lat="48.82382" lon="1.97077">
        <ele>124.63</ele>
        <time>2012-01-18T12:06:57Z</time>
      </trkpt>
      <trkpt lat="48.82387" lon="1.9704">
        <ele>125.59</ele>
        <time>2012-01-18T12:07:15Z</time>
      </trkpt>
      <trkpt lat="48.82388" lon="1.97034">
        <ele>126.55</ele>
        <time>2012-01-18T12:07:18Z</time>
      </trkpt>
      <trkpt lat="48.82393" lon="1.96996">
        <ele>126.07</ele>
        <time>2012-01-18T12:07:35Z</time>
      </trkpt>
      <trkpt lat="48.82397" lon="1.96964">
        <ele>125.11</ele>
        <time>2012-01-18T12:07:50Z</time>
      </trkpt>
      <trkpt lat="48.82403" lon="1.96927">
        <ele>126.55</ele>
        <time>2012-01-18T12:08:07Z</time>
      </trkpt>
      <trkpt lat="48.82408" lon="1.96894">
        <ele>127.03</ele>
        <time>2012-01-18T12:08:24Z</time>
      </trkpt>
      <trkpt lat="48.82412" lon="1.96858">
        <ele>125.11</ele>
        <time>2012-01-18T12:08:40Z</time>
      </trkpt>
      <trkpt lat="48.82414" lon="1.96816">
        <ele>122.22</ele>
        <time>2012-01-18T12:08:58Z</time>
      </trkpt>
      <trkpt lat="48.8242" lon="1.96786">
        <ele>121.74</ele>
        <time>2012-01-18T12:09:12Z</time>
      </trkpt>
      <trkpt lat="48.82427" lon="1.96762">
        <ele>120.3</ele>
        <time>2012-01-18T12:09:23Z</time>
      </trkpt>
      <trkpt lat="48.8243" lon="1.96741">
        <ele>119.34</ele>
        <time>2012-01-18T12:09:34Z</time>
      </trkpt>
      <trkpt lat="48.82429" lon="1.96707">
        <ele>118.86</ele>
        <time>2012-01-18T12:09:50Z</time>
      </trkpt>
      <trkpt lat="48.82431" lon="1.9667">
        <ele>120.78</ele>
        <time>2012-01-18T12:10:06Z</time>
      </trkpt>
      <trkpt lat="48.82436" lon="1.96644">
        <ele>121.74</ele>
        <time>2012-01-18T12:10:19Z</time>
      </trkpt>
      <trkpt lat="48.82444" lon="1.96603">
        <ele>122.22</ele>
        <time>2012-01-18T12:10:36Z</time>
      </trkpt>
      <trkpt lat="48.82447" lon="1.96577">
        <ele>120.3</ele>
        <time>2012-01-18T12:10:48Z</time>
      </trkpt>
      <trkpt lat="48.82452" lon="1.96549">
        <ele>116.46</ele>
        <time>2012-01-18T12:11:03Z</time>
      </trkpt>
      <trkpt lat="48.82452" lon="1.96545">
        <ele>116.46</ele>
        <time>2012-01-18T12:11:05Z</time>
      </trkpt>
      <trkpt lat="48.82454" lon="1.96532">
        <ele>115.5</ele>
        <time>2012-01-18T12:11:11Z</time>
      </trkpt>
      <trkpt lat="48.82455" lon="1.96525">
        <ele>115.5</ele>
        <time>2012-01-18T12:11:14Z</time>
      </trkpt>
      <trkpt lat="48.82459" lon="1.96488">
        <ele>115.98</ele>
        <time>2012-01-18T12:11:30Z</time>
      </trkpt>
      <trkpt lat="48.82461" lon="1.96457">
        <ele>117.42</ele>
        <time>2012-01-18T12:11:43Z</time>
      </trkpt>
      <trkpt lat="48.82464" lon="1.96446">
        <ele>116.46</ele>
        <time>2012-01-18T12:11:48Z</time>
      </trkpt>
      <trkpt lat="48.82466" lon="1.96425">
        <ele>116.94</ele>
        <time>2012-01-18T12:11:57Z</time>
      </trkpt>
      <trkpt lat="48.82466" lon="1.96422">
        <ele>116.94</ele>
        <time>2012-01-18T12:11:59Z</time>
      </trkpt>
      <trkpt lat="48.82466" lon="1.96414">
        <ele>115.98</ele>
        <time>2012-01-18T12:12:03Z</time>
      </trkpt>
      <trkpt lat="48.82464" lon="1.96398">
        <ele>115.5</ele>
        <time>2012-01-18T12:12:11Z</time>
      </trkpt>
      <trkpt lat="48.82468" lon="1.96388">
        <ele>115.98</ele>
        <time>2012-01-18T12:12:17Z</time>
      </trkpt>
      <trkpt lat="48.82474" lon="1.96358">
        <ele>117.42</ele>
        <time>2012-01-18T12:12:32Z</time>
      </trkpt>
      <trkpt lat="48.8248" lon="1.96318">
        <ele>117.42</ele>
        <time>2012-01-18T12:12:48Z</time>
      </trkpt>
      <trkpt lat="48.82478" lon="1.96288">
        <ele>119.34</ele>
        <time>2012-01-18T12:13:01Z</time>
      </trkpt>
      <trkpt lat="48.82481" lon="1.96259">
        <ele>119.82</ele>
        <time>2012-01-18T12:13:17Z</time>
      </trkpt>
      <trkpt lat="48.8249" lon="1.96227">
        <ele>116.94</ele>
        <time>2012-01-18T12:13:32Z</time>
      </trkpt>
      <trkpt lat="48.82495" lon="1.96195">
        <ele>114.05</ele>
        <time>2012-01-18T12:13:47Z</time>
      </trkpt>
      <trkpt lat="48.82504" lon="1.96162">
        <ele>111.65</ele>
        <time>2012-01-18T12:14:01Z</time>
      </trkpt>
      <trkpt lat="48.82507" lon="1.96141">
        <ele>110.69</ele>
        <time>2012-01-18T12:14:14Z</time>
      </trkpt>
      <trkpt lat="48.82509" lon="1.96124">
        <ele>109.25</ele>
        <time>2012-01-18T12:14:22Z</time>
      </trkpt>
      <trkpt lat="48.82508" lon="1.96092">
        <ele>111.65</ele>
        <time>2012-01-18T12:14:35Z</time>
      </trkpt>
      <trkpt lat="48.82511" lon="1.96073">
        <ele>111.17</ele>
        <time>2012-01-18T12:14:44Z</time>
      </trkpt>
      <trkpt lat="48.82515" lon="1.96042">
        <ele>110.21</ele>
        <time>2012-01-18T12:14:59Z</time>
      </trkpt>
      <trkpt lat="48.82512" lon="1.96006">
        <ele>110.21</ele>
        <time>2012-01-18T12:15:14Z</time>
      </trkpt>
      <trkpt lat="48.82512" lon="1.95971">
        <ele>109.73</ele>
        <time>2012-01-18T12:15:31Z</time>
      </trkpt>
      <trkpt lat="48.82507" lon="1.95942">
        <ele>109.25</ele>
        <time>2012-01-18T12:15:46Z</time>
      </trkpt>
      <trkpt lat="48.82501" lon="1.9591">
        <ele>109.25</ele>
        <time>2012-01-18T12:16:03Z</time>
      </trkpt>
      <trkpt lat="48.82495" lon="1.95868">
        <ele>107.32</ele>
        <time>2012-01-18T12:16:20Z</time>
      </trkpt>
      <trkpt lat="48.8249" lon="1.9584">
        <ele>103.96</ele>
        <time>2012-01-18T12:16:35Z</time>
      </trkpt>
      <trkpt lat="48.82484" lon="1.95803">
        <ele>104.92</ele>
        <time>2012-01-18T12:16:51Z</time>
      </trkpt>
      <trkpt lat="48.82477" lon="1.95774">
        <ele>107.32</ele>
        <time>2012-01-18T12:17:06Z</time>
      </trkpt>
      <trkpt lat="48.82474" lon="1.95738">
        <ele>106.84</ele>
        <time>2012-01-18T12:17:22Z</time>
      </trkpt>
      <trkpt lat="48.82469" lon="1.95702">
        <ele>104.92</ele>
        <time>2012-01-18T12:17:41Z</time>
      </trkpt>
      <trkpt lat="48.82464" lon="1.95666">
        <ele>104.92</ele>
        <time>2012-01-18T12:17:56Z</time>
      </trkpt>
      <trkpt lat="48.82462" lon="1.95624">
        <ele>106.36</ele>
        <time>2012-01-18T12:18:14Z</time>
      </trkpt>
      <trkpt lat="48.82459" lon="1.9559">
        <ele>108.77</ele>
        <time>2012-01-18T12:18:29Z</time>
      </trkpt>
      <trkpt lat="48.82457" lon="1.95567">
        <ele>110.21</ele>
        <time>2012-01-18T12:18:40Z</time>
      </trkpt>
      <trkpt lat="48.82458" lon="1.95555">
        <ele>111.17</ele>
        <time>2012-01-18T12:18:47Z</time>
      </trkpt>
      <trkpt lat="48.82455" lon="1.95548">
        <ele>111.17</ele>
        <time>2012-01-18T12:18:51Z</time>
      </trkpt>
      <trkpt lat="48.82443" lon="1.95524">
        <ele>113.09</ele>
        <time>2012-01-18T12:19:08Z</time>
      </trkpt>
      <trkpt lat="48.82433" lon="1.95493">
        <ele>112.13</ele>
        <time>2012-01-18T12:19:23Z</time>
      </trkpt>
      <trkpt lat="48.82424" lon="1.95461">
        <ele>111.17</ele>
        <time>2012-01-18T12:19:39Z</time>
      </trkpt>
      <trkpt lat="48.82422" lon="1.95439">
        <ele>110.69</ele>
        <time>2012-01-18T12:19:48Z</time>
      </trkpt>
      <trkpt lat="48.82417" lon="1.95408">
        <ele>112.13</ele>
        <time>2012-01-18T12:20:03Z</time>
      </trkpt>
      <trkpt lat="48.82417" lon="1.95398">
        <ele>112.13</ele>
        <time>2012-01-18T12:20:08Z</time>
      </trkpt>
      <trkpt lat="48.8241" lon="1.95357">
        <ele>112.13</ele>
        <time>2012-01-18T12:20:26Z</time>
      </trkpt>
      <trkpt lat="48.82406" lon="1.95332">
        <ele>110.69</ele>
        <time>2012-01-18T12:20:38Z</time>
      </trkpt>
      <trkpt lat="48.82397" lon="1.95326">
        <ele>111.65</ele>
        <time>2012-01-18T12:20:45Z</time>
      </trkpt>
      <trkpt lat="48.82375" lon="1.95309">
        <ele>112.13</ele>
        <time>2012-01-18T12:21:00Z</time>
      </trkpt>
      <trkpt lat="48.82365" lon="1.95279">
        <ele>111.17</ele>
        <time>2012-01-18T12:21:16Z</time>
      </trkpt>
      <trkpt lat="48.82364" lon="1.95276">
        <ele>111.17</ele>
        <time>2012-01-18T12:21:18Z</time>
      </trkpt>
      <trkpt lat="48.82367" lon="1.95246">
        <ele>110.21</ele>
        <time>2012-01-18T12:21:34Z</time>
      </trkpt>
      <trkpt lat="48.82362" lon="1.95207">
        <ele>110.21</ele>
        <time>2012-01-18T12:21:51Z</time>
      </trkpt>
      <trkpt lat="48.82359" lon="1.95167">
        <ele>109.73</ele>
        <time>2012-01-18T12:22:10Z</time>
      </trkpt>
      <trkpt lat="48.82355" lon="1.95123">
        <ele>110.69</ele>
        <time>2012-01-18T12:22:29Z</time>
      </trkpt>
      <trkpt lat="48.82357" lon="1.95098">
        <ele>110.69</ele>
        <time>2012-01-18T12:22:42Z</time>
      </trkpt>
      <trkpt lat="48.82357" lon="1.95093">
        <ele>110.21</ele>
        <time>2012-01-18T12:22:44Z</time>
      </trkpt>
      <trkpt lat="48.82352" lon="1.95054">
        <ele>110.21</ele>
        <time>2012-01-18T12:23:02Z</time>
      </trkpt>
      <trkpt lat="48.82347" lon="1.9502">
        <ele>110.69</ele>
        <time>2012-01-18T12:23:18Z</time>
      </trkpt>
      <trkpt lat="48.82343" lon="1.9499">
        <ele>109.25</ele>
        <time>2012-01-18T12:23:33Z</time>
      </trkpt>
      <trkpt lat="48.82338" lon="1.9496">
        <ele>109.73</ele>
        <time>2012-01-18T12:23:47Z</time>
      </trkpt>
      <trkpt lat="48.82333" lon="1.9493">
        <ele>111.17</ele>
        <time>2012-01-18T12:24:02Z</time>
      </trkpt>
      <trkpt lat="48.82328" lon="1.94896">
        <ele>109.73</ele>
        <time>2012-01-18T12:24:18Z</time>
      </trkpt>
      <trkpt lat="48.82323" lon="1.94867">
        <ele>108.77</ele>
        <time>2012-01-18T12:24:32Z</time>
      </trkpt>
      <trkpt lat="48.82312" lon="1.94842">
        <ele>108.29</ele>
        <time>2012-01-18T12:24:44Z</time>
      </trkpt>
      <trkpt lat="48.82297" lon="1.94817">
        <ele>105.88</ele>
        <time>2012-01-18T12:25:00Z</time>
      </trkpt>
      <trkpt lat="48.82293" lon="1.94811">
        <ele>105.4</ele>
        <time>2012-01-18T12:25:04Z</time>
      </trkpt>
      <trkpt lat="48.82287" lon="1.94801">
        <ele>104.92</ele>
        <time>2012-01-18T12:25:10Z</time>
      </trkpt>
      <trkpt lat="48.8228" lon="1.94789">
        <ele>104.44</ele>
        <time>2012-01-18T12:25:18Z</time>
      </trkpt>
      <trkpt lat="48.82266" lon="1.9477">
        <ele>104.92</ele>
        <time>2012-01-18T12:25:32Z</time>
      </trkpt>
      <trkpt lat="48.82255" lon="1.94752">
        <ele>104.92</ele>
        <time>2012-01-18T12:25:45Z</time>
      </trkpt>
      <trkpt lat="48.82241" lon="1.9474">
        <ele>103.96</ele>
        <time>2012-01-18T12:25:56Z</time>
      </trkpt>
      <trkpt lat="48.82241" lon="1.9474">
        <ele>103.96</ele>
        <time>2012-01-18T12:25:57Z</time>
      </trkpt>
      <trkpt lat="48.82228" lon="1.94725">
        <ele>105.88</ele>
        <time>2012-01-18T12:26:11Z</time>
      </trkpt>
      <trkpt lat="48.82214" lon="1.94711">
        <ele>109.73</ele>
        <time>2012-01-18T12:26:25Z</time>
      </trkpt>
      <trkpt lat="48.82191" lon="1.947">
        <ele>110.21</ele>
        <time>2012-01-18T12:26:39Z</time>
      </trkpt>
      <trkpt lat="48.82172" lon="1.94684">
        <ele>110.69</ele>
        <time>2012-01-18T12:26:53Z</time>
      </trkpt>
      <trkpt lat="48.82162" lon="1.94676">
        <ele>111.17</ele>
        <time>2012-01-18T12:27:01Z</time>
      </trkpt>
      <trkpt lat="48.82157" lon="1.94676">
        <ele>111.65</ele>
        <time>2012-01-18T12:27:05Z</time>
      </trkpt>
      <trkpt lat="48.82154" lon="1.94674">
        <ele>111.65</ele>
        <time>2012-01-18T12:27:08Z</time>
      </trkpt>
      <trkpt lat="48.82132" lon="1.9466">
        <ele>109.73</ele>
        <time>2012-01-18T12:27:25Z</time>
      </trkpt>
      <trkpt lat="48.8213" lon="1.94658">
        <ele>109.25</ele>
        <time>2012-01-18T12:27:28Z</time>
      </trkpt>
      <trkpt lat="48.8212" lon="1.94646">
        <ele>107.32</ele>
        <time>2012-01-18T12:27:40Z</time>
      </trkpt>
      <trkpt lat="48.82114" lon="1.94621">
        <ele>105.88</ele>
        <time>2012-01-18T12:27:54Z</time>
      </trkpt>
      <trkpt lat="48.82113" lon="1.94618">
        <ele>105.4</ele>
        <time>2012-01-18T12:27:57Z</time>
      </trkpt>
      <trkpt lat="48.8211" lon="1.94587">
        <ele>102.52</ele>
        <time>2012-01-18T12:28:12Z</time>
      </trkpt>
      <trkpt lat="48.82113" lon="1.94555">
        <ele>99.15</ele>
        <time>2012-01-18T12:28:27Z</time>
      </trkpt>
      <trkpt lat="48.82121" lon="1.94515">
        <ele>100.11</ele>
        <time>2012-01-18T12:28:45Z</time>
      </trkpt>
      <trkpt lat="48.8212" lon="1.94483">
        <ele>101.56</ele>
        <time>2012-01-18T12:29:01Z</time>
      </trkpt>
      <trkpt lat="48.82121" lon="1.94479">
        <ele>102.04</ele>
        <time>2012-01-18T12:29:03Z</time>
      </trkpt>
      <trkpt lat="48.82122" lon="1.94459">
        <ele>103.96</ele>
        <time>2012-01-18T12:29:16Z</time>
      </trkpt>
      <trkpt lat="48.8213" lon="1.94449">
        <ele>105.4</ele>
        <time>2012-01-18T12:29:24Z</time>
      </trkpt>
      <trkpt lat="48.82138" lon="1.9445">
        <ele>106.36</ele>
        <time>2012-01-18T12:29:30Z</time>
      </trkpt>
      <trkpt lat="48.82164" lon="1.94451">
        <ele>105.4</ele>
        <time>2012-01-18T12:29:48Z</time>
      </trkpt>
      <trkpt lat="48.82175" lon="1.94452">
        <ele>105.4</ele>
        <time>2012-01-18T12:29:56Z</time>
      </trkpt>
      <trkpt lat="48.82189" lon="1.94428">
        <ele>103.48</ele>
        <time>2012-01-18T12:30:11Z</time>
      </trkpt>
      <trkpt lat="48.82194" lon="1.94416">
        <ele>102.04</ele>
        <time>2012-01-18T12:30:18Z</time>
      </trkpt>
      <trkpt lat="48.82197" lon="1.94408">
        <ele>101.56</ele>
        <time>2012-01-18T12:30:22Z</time>
      </trkpt>
      <trkpt lat="48.8221" lon="1.9438">
        <ele>100.11</ele>
        <time>2012-01-18T12:30:38Z</time>
      </trkpt>
      <trkpt lat="48.82221" lon="1.94348">
        <ele>99.63</ele>
        <time>2012-01-18T12:30:55Z</time>
      </trkpt>
      <trkpt lat="48.82229" lon="1.94325">
        <ele>100.6</ele>
        <time>2012-01-18T12:31:07Z</time>
      </trkpt>
      <trkpt lat="48.8224" lon="1.94297">
        <ele>99.15</ele>
        <time>2012-01-18T12:31:22Z</time>
      </trkpt>
      <trkpt lat="48.82252" lon="1.94266">
        <ele>99.15</ele>
        <time>2012-01-18T12:31:39Z</time>
      </trkpt>
      <trkpt lat="48.82263" lon="1.94239">
        <ele>98.19</ele>
        <time>2012-01-18T12:31:54Z</time>
      </trkpt>
      <trkpt lat="48.82275" lon="1.94214">
        <ele>98.67</ele>
        <time>2012-01-18T12:32:07Z</time>
      </trkpt>
      <trkpt lat="48.82276" lon="1.9421">
        <ele>99.15</ele>
        <time>2012-01-18T12:32:09Z</time>
      </trkpt>
      <trkpt lat="48.82282" lon="1.94199">
        <ele>99.63</ele>
        <time>2012-01-18T12:32:16Z</time>
      </trkpt>
      <trkpt lat="48.82285" lon="1.94192">
        <ele>98.67</ele>
        <time>2012-01-18T12:32:20Z</time>
      </trkpt>
      <trkpt lat="48.82299" lon="1.94163">
        <ele>97.71</ele>
        <time>2012-01-18T12:32:37Z</time>
      </trkpt>
      <trkpt lat="48.82311" lon="1.94133">
        <ele>95.79</ele>
        <time>2012-01-18T12:32:53Z</time>
      </trkpt>
      <trkpt lat="48.82325" lon="1.94107">
        <ele>93.87</ele>
        <time>2012-01-18T12:33:08Z</time>
      </trkpt>
      <trkpt lat="48.82338" lon="1.94085">
        <ele>93.39</ele>
        <time>2012-01-18T12:33:22Z</time>
      </trkpt>
      <trkpt lat="48.82344" lon="1.94071">
        <ele>91.94</ele>
        <time>2012-01-18T12:33:30Z</time>
      </trkpt>
      <trkpt lat="48.82344" lon="1.9406">
        <ele>92.42</ele>
        <time>2012-01-18T12:33:35Z</time>
      </trkpt>
      <trkpt lat="48.8235" lon="1.94046">
        <ele>93.39</ele>
        <time>2012-01-18T12:33:42Z</time>
      </trkpt>
      <trkpt lat="48.82347" lon="1.9404">
        <ele>93.87</ele>
        <time>2012-01-18T12:33:46Z</time>
      </trkpt>
      <trkpt lat="48.82334" lon="1.94016">
        <ele>95.79</ele>
        <time>2012-01-18T12:34:02Z</time>
      </trkpt>
      <trkpt lat="48.8232" lon="1.93992">
        <ele>98.67</ele>
        <time>2012-01-18T12:34:18Z</time>
      </trkpt>
      <trkpt lat="48.82305" lon="1.93963">
        <ele>101.56</ele>
        <time>2012-01-18T12:34:36Z</time>
      </trkpt>
      <trkpt lat="48.82292" lon="1.93938">
        <ele>102.04</ele>
        <time>2012-01-18T12:34:52Z</time>
      </trkpt>
      <trkpt lat="48.82278" lon="1.93914">
        <ele>103.96</ele>
        <time>2012-01-18T12:35:07Z</time>
      </trkpt>
      <trkpt lat="48.82264" lon="1.93889">
        <ele>104.44</ele>
        <time>2012-01-18T12:35:23Z</time>
      </trkpt>
      <trkpt lat="48.82253" lon="1.93867">
        <ele>105.4</ele>
        <time>2012-01-18T12:35:37Z</time>
      </trkpt>
      <trkpt lat="48.82242" lon="1.93845">
        <ele>104.44</ele>
        <time>2012-01-18T12:35:50Z</time>
      </trkpt>
      <trkpt lat="48.8223" lon="1.93822">
        <ele>103.96</ele>
        <time>2012-01-18T12:36:04Z</time>
      </trkpt>
      <trkpt lat="48.82225" lon="1.93812">
        <ele>103.48</ele>
        <time>2012-01-18T12:36:11Z</time>
      </trkpt>
      <trkpt lat="48.82236" lon="1.93795">
        <ele>102.04</ele>
        <time>2012-01-18T12:36:23Z</time>
      </trkpt>
      <trkpt lat="48.82254" lon="1.93776">
        <ele>103.96</ele>
        <time>2012-01-18T12:36:39Z</time>
      </trkpt>
      <trkpt lat="48.8227" lon="1.93748">
        <ele>104.92</ele>
        <time>2012-01-18T12:36:58Z</time>
      </trkpt>
      <trkpt lat="48.82285" lon="1.93729">
        <ele>109.25</ele>
        <time>2012-01-18T12:37:14Z</time>
      </trkpt>
      <trkpt lat="48.82299" lon="1.93705">
        <ele>111.17</ele>
        <time>2012-01-18T12:37:30Z</time>
      </trkpt>
      <trkpt lat="48.82319" lon="1.93676">
        <ele>113.09</ele>
        <time>2012-01-18T12:37:49Z</time>
      </trkpt>
      <trkpt lat="48.82335" lon="1.9365">
        <ele>113.09</ele>
        <time>2012-01-18T12:38:06Z</time>
      </trkpt>
      <trkpt lat="48.82351" lon="1.9362">
        <ele>112.61</ele>
        <time>2012-01-18T12:38:24Z</time>
      </trkpt>
      <trkpt lat="48.82368" lon="1.93592">
        <ele>111.65</ele>
        <time>2012-01-18T12:38:42Z</time>
      </trkpt>
      <trkpt lat="48.82384" lon="1.93567">
        <ele>112.13</ele>
        <time>2012-01-18T12:38:58Z</time>
      </trkpt>
      <trkpt lat="48.824" lon="1.93542">
        <ele>112.13</ele>
        <time>2012-01-18T12:39:14Z</time>
      </trkpt>
      <trkpt lat="48.82417" lon="1.93517">
        <ele>112.61</ele>
        <time>2012-01-18T12:39:31Z</time>
      </trkpt>
      <trkpt lat="48.82433" lon="1.93493">
        <ele>112.61</ele>
        <time>2012-01-18T12:39:47Z</time>
      </trkpt>
      <trkpt lat="48.82436" lon="1.93488">
        <ele>112.61</ele>
        <time>2012-01-18T12:39:50Z</time>
      </trkpt>
      <trkpt lat="48.8244" lon="1.93479">
        <ele>112.61</ele>
        <time>2012-01-18T12:39:56Z</time>
      </trkpt>
      <trkpt lat="48.82456" lon="1.93459">
        <ele>113.09</ele>
        <time>2012-01-18T12:40:11Z</time>
      </trkpt>
      <trkpt lat="48.82475" lon="1.93443">
        <ele>113.57</ele>
        <time>2012-01-18T12:40:27Z</time>
      </trkpt>
      <trkpt lat="48.82494" lon="1.93435">
        <ele>112.13</ele>
        <time>2012-01-18T12:40:43Z</time>
      </trkpt>
      <trkpt lat="48.82511" lon="1.9342">
        <ele>113.57</ele>
        <time>2012-01-18T12:40:59Z</time>
      </trkpt>
      <trkpt lat="48.82533" lon="1.93403">
        <ele>115.01</ele>
        <time>2012-01-18T12:41:17Z</time>
      </trkpt>
      <trkpt lat="48.8255" lon="1.93389">
        <ele>113.57</ele>
        <time>2012-01-18T12:41:31Z</time>
      </trkpt>
      <trkpt lat="48.82559" lon="1.93383">
        <ele>114.05</ele>
        <time>2012-01-18T12:41:38Z</time>
      </trkpt>
      <trkpt lat="48.82567" lon="1.93378">
        <ele>114.05</ele>
        <time>2012-01-18T12:41:44Z</time>
      </trkpt>
      <trkpt lat="48.82573" lon="1.93375">
        <ele>114.53</ele>
        <time>2012-01-18T12:41:49Z</time>
      </trkpt>
      <trkpt lat="48.82595" lon="1.93361">
        <ele>114.53</ele>
        <time>2012-01-18T12:42:07Z</time>
      </trkpt>
      <trkpt lat="48.82616" lon="1.93344">
        <ele>114.53</ele>
        <time>2012-01-18T12:42:24Z</time>
      </trkpt>
      <trkpt lat="48.82637" lon="1.93329">
        <ele>113.09</ele>
        <time>2012-01-18T12:42:41Z</time>
      </trkpt>
      <trkpt lat="48.82653" lon="1.93313">
        <ele>112.61</ele>
        <time>2012-01-18T12:42:55Z</time>
      </trkpt>
      <trkpt lat="48.82658" lon="1.93285">
        <ele>112.61</ele>
        <time>2012-01-18T12:43:10Z</time>
      </trkpt>
      <trkpt lat="48.82659" lon="1.93279">
        <ele>113.09</ele>
        <time>2012-01-18T12:43:13Z</time>
      </trkpt>
      <trkpt lat="48.82663" lon="1.93248">
        <ele>113.57</ele>
        <time>2012-01-18T12:43:29Z</time>
      </trkpt>
      <trkpt lat="48.82666" lon="1.93218">
        <ele>114.05</ele>
        <time>2012-01-18T12:43:44Z</time>
      </trkpt>
      <trkpt lat="48.8267" lon="1.93188">
        <ele>114.05</ele>
        <time>2012-01-18T12:43:58Z</time>
      </trkpt>
      <trkpt lat="48.82672" lon="1.93157">
        <ele>113.57</ele>
        <time>2012-01-18T12:44:13Z</time>
      </trkpt>
      <trkpt lat="48.82675" lon="1.93127">
        <ele>114.05</ele>
        <time>2012-01-18T12:44:28Z</time>
      </trkpt>
      <trkpt lat="48.82678" lon="1.931">
        <ele>113.09</ele>
        <time>2012-01-18T12:44:41Z</time>
      </trkpt>
      <trkpt lat="48.82679" lon="1.93072">
        <ele>113.09</ele>
        <time>2012-01-18T12:44:55Z</time>
      </trkpt>
      <trkpt lat="48.82683" lon="1.93042">
        <ele>112.61</ele>
        <time>2012-01-18T12:45:09Z</time>
      </trkpt>
      <trkpt lat="48.82684" lon="1.93037">
        <ele>112.61</ele>
        <time>2012-01-18T12:45:11Z</time>
      </trkpt>
      <trkpt lat="48.82685" lon="1.9301">
        <ele>113.57</ele>
        <time>2012-01-18T12:45:24Z</time>
      </trkpt>
      <trkpt lat="48.82689" lon="1.92978">
        <ele>113.57</ele>
        <time>2012-01-18T12:45:39Z</time>
      </trkpt>
      <trkpt lat="48.82691" lon="1.92952">
        <ele>112.61</ele>
        <time>2012-01-18T12:45:51Z</time>
      </trkpt>
      <trkpt lat="48.82695" lon="1.92921">
        <ele>111.65</ele>
        <time>2012-01-18T12:46:07Z</time>
      </trkpt>
      <trkpt lat="48.82698" lon="1.92889">
        <ele>110.69</ele>
        <time>2012-01-18T12:46:22Z</time>
      </trkpt>
      <trkpt lat="48.82701" lon="1.92856">
        <ele>109.73</ele>
        <time>2012-01-18T12:46:38Z</time>
      </trkpt>
      <trkpt lat="48.82704" lon="1.92832">
        <ele>108.77</ele>
        <time>2012-01-18T12:46:51Z</time>
      </trkpt>
      <trkpt lat="48.82708" lon="1.92798">
        <ele>109.25</ele>
        <time>2012-01-18T12:47:08Z</time>
      </trkpt>
      <trkpt lat="48.82711" lon="1.92767">
        <ele>109.73</ele>
        <time>2012-01-18T12:47:24Z</time>
      </trkpt>
      <trkpt lat="48.82715" lon="1.92737">
        <ele>110.69</ele>
        <time>2012-01-18T12:47:39Z</time>
      </trkpt>
      <trkpt lat="48.82718" lon="1.92706">
        <ele>111.17</ele>
        <time>2012-01-18T12:47:54Z</time>
      </trkpt>
      <trkpt lat="48.82722" lon="1.92673">
        <ele>112.61</ele>
        <time>2012-01-18T12:48:10Z</time>
      </trkpt>
      <trkpt lat="48.82725" lon="1.9264">
        <ele>112.13</ele>
        <time>2012-01-18T12:48:26Z</time>
      </trkpt>
      <trkpt lat="48.82728" lon="1.92605">
        <ele>112.13</ele>
        <time>2012-01-18T12:48:43Z</time>
      </trkpt>
      <trkpt lat="48.82731" lon="1.92577">
        <ele>112.13</ele>
        <time>2012-01-18T12:48:57Z</time>
      </trkpt>
      <trkpt lat="48.82735" lon="1.92548">
        <ele>112.13</ele>
        <time>2012-01-18T12:49:11Z</time>
      </trkpt>
      <trkpt lat="48.82736" lon="1.92523">
        <ele>111.65</ele>
        <time>2012-01-18T12:49:24Z</time>
      </trkpt>
      <trkpt lat="48.82729" lon="1.92496">
        <ele>110.69</ele>
        <time>2012-01-18T12:49:39Z</time>
      </trkpt>
      <trkpt lat="48.82722" lon="1.92468">
        <ele>110.21</ele>
        <time>2012-01-18T12:49:54Z</time>
      </trkpt>
      <trkpt lat="48.82715" lon="1.92444">
        <ele>110.21</ele>
        <time>2012-01-18T12:50:08Z</time>
      </trkpt>
      <trkpt lat="48.82707" lon="1.92419">
        <ele>109.73</ele>
        <time>2012-01-18T12:50:23Z</time>
      </trkpt>
      <trkpt lat="48.82705" lon="1.92415">
        <ele>109.73</ele>
        <time>2012-01-18T12:50:40Z</time>
      </trkpt>
      <trkpt lat="48.827" lon="1.92394">
        <ele>109.73</ele>
        <time>2012-01-18T12:50:54Z</time>
      </trkpt>
      <trkpt lat="48.82694" lon="1.92371">
        <ele>109.25</ele>
        <time>2012-01-18T12:51:08Z</time>
      </trkpt>
      <trkpt lat="48.82686" lon="1.92343">
        <ele>110.21</ele>
        <time>2012-01-18T12:51:24Z</time>
      </trkpt>
      <trkpt lat="48.82676" lon="1.92313">
        <ele>110.69</ele>
        <time>2012-01-18T12:51:39Z</time>
      </trkpt>
      <trkpt lat="48.82668" lon="1.92284">
        <ele>111.65</ele>
        <time>2012-01-18T12:51:54Z</time>
      </trkpt>
      <trkpt lat="48.82658" lon="1.92252">
        <ele>110.69</ele>
        <time>2012-01-18T12:52:11Z</time>
      </trkpt>
      <trkpt lat="48.82648" lon="1.92222">
        <ele>109.73</ele>
        <time>2012-01-18T12:52:27Z</time>
      </trkpt>
      <trkpt lat="48.8264" lon="1.92194">
        <ele>109.73</ele>
        <time>2012-01-18T12:52:42Z</time>
      </trkpt>
      <trkpt lat="48.82633" lon="1.92169">
        <ele>110.21</ele>
        <time>2012-01-18T12:52:56Z</time>
      </trkpt>
      <trkpt lat="48.82632" lon="1.92164">
        <ele>110.21</ele>
        <time>2012-01-18T12:53:00Z</time>
      </trkpt>
      <trkpt lat="48.82632" lon="1.92139">
        <ele>109.73</ele>
        <time>2012-01-18T12:53:14Z</time>
      </trkpt>
      <trkpt lat="48.82636" lon="1.92121">
        <ele>109.73</ele>
        <time>2012-01-18T12:53:23Z</time>
      </trkpt>
      <trkpt lat="48.82638" lon="1.92113">
        <ele>109.73</ele>
        <time>2012-01-18T12:53:30Z</time>
      </trkpt>
      <trkpt lat="48.8264" lon="1.92104">
        <ele>109.73</ele>
        <time>2012-01-18T12:53:34Z</time>
      </trkpt>
      <trkpt lat="48.82647" lon="1.92075">
        <ele>107.81</ele>
        <time>2012-01-18T12:53:48Z</time>
      </trkpt>
      <trkpt lat="48.82655" lon="1.92043">
        <ele>108.77</ele>
        <time>2012-01-18T12:54:04Z</time>
      </trkpt>
      <trkpt lat="48.82662" lon="1.92012">
        <ele>109.73</ele>
        <time>2012-01-18T12:54:19Z</time>
      </trkpt>
      <trkpt lat="48.82668" lon="1.91986">
        <ele>109.73</ele>
        <time>2012-01-18T12:54:33Z</time>
      </trkpt>
      <trkpt lat="48.82675" lon="1.91959">
        <ele>110.69</ele>
        <time>2012-01-18T12:54:47Z</time>
      </trkpt>
      <trkpt lat="48.82682" lon="1.91929">
        <ele>111.17</ele>
        <time>2012-01-18T12:55:02Z</time>
      </trkpt>
      <trkpt lat="48.8269" lon="1.91896">
        <ele>111.17</ele>
        <time>2012-01-18T12:55:19Z</time>
      </trkpt>
      <trkpt lat="48.82699" lon="1.91862">
        <ele>112.13</ele>
        <time>2012-01-18T12:55:37Z</time>
      </trkpt>
      <trkpt lat="48.82706" lon="1.91833">
        <ele>112.61</ele>
        <time>2012-01-18T12:55:52Z</time>
      </trkpt>
      <trkpt lat="48.82712" lon="1.91804">
        <ele>114.05</ele>
        <time>2012-01-18T12:56:07Z</time>
      </trkpt>
      <trkpt lat="48.82719" lon="1.91778">
        <ele>114.05</ele>
        <time>2012-01-18T12:56:21Z</time>
      </trkpt>
      <trkpt lat="48.82725" lon="1.9175">
        <ele>114.05</ele>
        <time>2012-01-18T12:56:36Z</time>
      </trkpt>
      <trkpt lat="48.82732" lon="1.9172">
        <ele>113.09</ele>
        <time>2012-01-18T12:56:51Z</time>
      </trkpt>
      <trkpt lat="48.82739" lon="1.91688">
        <ele>112.61</ele>
        <time>2012-01-18T12:57:07Z</time>
      </trkpt>
      <trkpt lat="48.82746" lon="1.91657">
        <ele>113.09</ele>
        <time>2012-01-18T12:57:23Z</time>
      </trkpt>
      <trkpt lat="48.82753" lon="1.91629">
        <ele>111.65</ele>
        <time>2012-01-18T12:57:35Z</time>
      </trkpt>
      <trkpt lat="48.82758" lon="1.91612">
        <ele>111.17</ele>
        <time>2012-01-18T12:57:44Z</time>
      </trkpt>
      <trkpt lat="48.82764" lon="1.91589">
        <ele>112.13</ele>
        <time>2012-01-18T12:57:56Z</time>
      </trkpt>
      <trkpt lat="48.82771" lon="1.91561">
        <ele>110.69</ele>
        <time>2012-01-18T12:58:11Z</time>
      </trkpt>
      <trkpt lat="48.82772" lon="1.91557">
        <ele>110.69</ele>
        <time>2012-01-18T12:58:14Z</time>
      </trkpt>
      <trkpt lat="48.82777" lon="1.9154">
        <ele>111.17</ele>
        <time>2012-01-18T12:58:23Z</time>
      </trkpt>
      <trkpt lat="48.82782" lon="1.91522">
        <ele>109.25</ele>
        <time>2012-01-18T12:58:33Z</time>
      </trkpt>
      <trkpt lat="48.8279" lon="1.91495">
        <ele>110.21</ele>
        <time>2012-01-18T12:58:48Z</time>
      </trkpt>
      <trkpt lat="48.82797" lon="1.91469">
        <ele>111.17</ele>
        <time>2012-01-18T12:59:02Z</time>
      </trkpt>
      <trkpt lat="48.82805" lon="1.91443">
        <ele>111.65</ele>
        <time>2012-01-18T12:59:16Z</time>
      </trkpt>
      <trkpt lat="48.82814" lon="1.91413">
        <ele>111.65</ele>
        <time>2012-01-18T12:59:32Z</time>
      </trkpt>
      <trkpt lat="48.82822" lon="1.91387">
        <ele>111.65</ele>
        <time>2012-01-18T12:59:46Z</time>
      </trkpt>
      <trkpt lat="48.8283" lon="1.91359">
        <ele>111.65</ele>
        <time>2012-01-18T13:00:01Z</time>
      </trkpt>
      <trkpt lat="48.82838" lon="1.91329">
        <ele>111.65</ele>
        <time>2012-01-18T13:00:17Z</time>
      </trkpt>
      <trkpt lat="48.82846" lon="1.91302">
        <ele>112.13</ele>
        <time>2012-01-18T13:00:32Z</time>
      </trkpt>
      <trkpt lat="48.82855" lon="1.91274">
        <ele>113.09</ele>
        <time>2012-01-18T13:00:47Z</time>
      </trkpt>
      <trkpt lat="48.82866" lon="1.9124">
        <ele>113.09</ele>
        <time>2012-01-18T13:01:05Z</time>
      </trkpt>
      <trkpt lat="48.82874" lon="1.91211">
        <ele>113.09</ele>
        <time>2012-01-18T13:01:20Z</time>
      </trkpt>
      <trkpt lat="48.82883" lon="1.91179">
        <ele>113.09</ele>
        <time>2012-01-18T13:01:37Z</time>
      </trkpt>
      <trkpt lat="48.82892" lon="1.91149">
        <ele>113.57</ele>
        <time>2012-01-18T13:01:53Z</time>
      </trkpt>
      <trkpt lat="48.82896" lon="1.91134">
        <ele>113.57</ele>
        <time>2012-01-18T13:02:01Z</time>
      </trkpt>
      <trkpt lat="48.82906" lon="1.91105">
        <ele>113.57</ele>
        <time>2012-01-18T13:02:17Z</time>
      </trkpt>
      <trkpt lat="48.82913" lon="1.91079">
        <ele>114.53</ele>
        <time>2012-01-18T13:02:31Z</time>
      </trkpt>
      <trkpt lat="48.82918" lon="1.91061">
        <ele>114.53</ele>
        <time>2012-01-18T13:02:41Z</time>
      </trkpt>
      <trkpt lat="48.82918" lon="1.91054">
        <ele>113.57</ele>
        <time>2012-01-18T13:02:56Z</time>
      </trkpt>
      <trkpt lat="48.82918" lon="1.91054">
        <ele>113.57</ele>
        <time>2012-01-18T13:03:17Z</time>
      </trkpt>
      <trkpt lat="48.82918" lon="1.91054">
        <ele>113.57</ele>
        <time>2012-01-18T13:03:23Z</time>
      </trkpt>
      <trkpt lat="48.82917" lon="1.91052">
        <ele>113.09</ele>
        <time>2012-01-18T13:03:26Z</time>
      </trkpt>
      <trkpt lat="48.8291" lon="1.91047">
        <ele>112.61</ele>
        <time>2012-01-18T13:03:33Z</time>
      </trkpt>
      <trkpt lat="48.82908" lon="1.91044">
        <ele>113.09</ele>
        <time>2012-01-18T13:03:46Z</time>
      </trkpt>
      <trkpt lat="48.82908" lon="1.91044">
        <ele>113.09</ele>
        <time>2012-01-18T13:04:14Z</time>
      </trkpt>
      <trkpt lat="48.82908" lon="1.91042">
        <ele>113.09</ele>
        <time>2012-01-18T13:04:43Z</time>
      </trkpt>
      <trkpt lat="48.82908" lon="1.91042">
        <ele>113.09</ele>
        <time>2012-01-18T13:05:03Z</time>
      </trkpt>
      <trkpt lat="48.82908" lon="1.91042">
        <ele>113.09</ele>
        <time>2012-01-18T13:05:21Z</time>
      </trkpt>
      <trkpt lat="48.82908" lon="1.91042">
        <ele>113.09</ele>
        <time>2012-01-18T13:05:54Z</time>
      </trkpt>
      <trkpt lat="48.82908" lon="1.91042">
        <ele>113.09</ele>
        <time>2012-01-18T13:06:17Z</time>
      </trkpt>
      <trkpt lat="48.82908" lon="1.91043">
        <ele>113.09</ele>
        <time>2012-01-18T13:06:35Z</time>
      </trkpt>
      <trkpt lat="48.82908" lon="1.91043">
        <ele>113.09</ele>
        <time>2012-01-18T13:07:04Z</time>
      </trkpt>
      <trkpt lat="48.82908" lon="1.91043">
        <ele>113.09</ele>
        <time>2012-01-18T13:07:24Z</time>
      </trkpt>
      <trkpt lat="48.82909" lon="1.91044">
        <ele>112.61</ele>
        <time>2012-01-18T13:07:48Z</time>
      </trkpt>
      <trkpt lat="48.82907" lon="1.91043">
        <ele>111.65</ele>
        <time>2012-01-18T13:08:03Z</time>
      </trkpt>
      <trkpt lat="48.82907" lon="1.91043">
        <ele>111.65</ele>
        <time>2012-01-18T13:08:27Z</time>
      </trkpt>
      <trkpt lat="48.82907" lon="1.91043">
        <ele>111.65</ele>
        <time>2012-01-18T13:08:57Z</time>
      </trkpt>
      <trkpt lat="48.82907" lon="1.91043">
        <ele>111.65</ele>
        <time>2012-01-18T13:09:35Z</time>
      </trkpt>
      <trkpt lat="48.82908" lon="1.91044">
        <ele>111.65</ele>
        <time>2012-01-18T13:09:57Z</time>
      </trkpt>
      <trkpt lat="48.82907" lon="1.91043">
        <ele>111.65</ele>
        <time>2012-01-18T13:10:21Z</time>
      </trkpt>
      <trkpt lat="48.8289" lon="1.91035">
        <ele>112.13</ele>
        <time>2012-01-18T13:10:36Z</time>
      </trkpt>
      <trkpt lat="48.82874" lon="1.9103">
        <ele>112.61</ele>
        <time>2012-01-18T13:10:49Z</time>
      </trkpt>
      <trkpt lat="48.82865" lon="1.91025">
        <ele>112.61</ele>
        <time>2012-01-18T13:10:57Z</time>
      </trkpt>
      <trkpt lat="48.82847" lon="1.91015">
        <ele>112.61</ele>
        <time>2012-01-18T13:11:12Z</time>
      </trkpt>
      <trkpt lat="48.82831" lon="1.91006">
        <ele>113.09</ele>
        <time>2012-01-18T13:11:25Z</time>
      </trkpt>
      <trkpt lat="48.8282" lon="1.90999">
        <ele>112.61</ele>
        <time>2012-01-18T13:11:35Z</time>
      </trkpt>
      <trkpt lat="48.82805" lon="1.90989">
        <ele>112.61</ele>
        <time>2012-01-18T13:11:49Z</time>
      </trkpt>
      <trkpt lat="48.82787" lon="1.90978">
        <ele>114.05</ele>
        <time>2012-01-18T13:12:04Z</time>
      </trkpt>
      <trkpt lat="48.82771" lon="1.90967">
        <ele>115.01</ele>
        <time>2012-01-18T13:12:17Z</time>
      </trkpt>
      <trkpt lat="48.82752" lon="1.90954">
        <ele>115.01</ele>
        <time>2012-01-18T13:12:33Z</time>
      </trkpt>
      <trkpt lat="48.82734" lon="1.90942">
        <ele>114.53</ele>
        <time>2012-01-18T13:12:48Z</time>
      </trkpt>
      <trkpt lat="48.82717" lon="1.90931">
        <ele>115.01</ele>
        <time>2012-01-18T13:13:03Z</time>
      </trkpt>
      <trkpt lat="48.82698" lon="1.90917">
        <ele>115.01</ele>
        <time>2012-01-18T13:13:19Z</time>
      </trkpt>
      <trkpt lat="48.82684" lon="1.90909">
        <ele>115.01</ele>
        <time>2012-01-18T13:13:31Z</time>
      </trkpt>
      <trkpt lat="48.82666" lon="1.90897">
        <ele>115.98</ele>
        <time>2012-01-18T13:13:46Z</time>
      </trkpt>
      <trkpt lat="48.82651" lon="1.90887">
        <ele>115.01</ele>
        <time>2012-01-18T13:13:59Z</time>
      </trkpt>
      <trkpt lat="48.82636" lon="1.90878">
        <ele>116.94</ele>
        <time>2012-01-18T13:14:12Z</time>
      </trkpt>
      <trkpt lat="48.8262" lon="1.90868">
        <ele>118.86</ele>
        <time>2012-01-18T13:14:26Z</time>
      </trkpt>
      <trkpt lat="48.8262" lon="1.90868">
        <ele>119.34</ele>
        <time>2012-01-18T13:14:27Z</time>
      </trkpt>
      <trkpt lat="48.82616" lon="1.90865">
        <ele>119.34</ele>
        <time>2012-01-18T13:14:31Z</time>
      </trkpt>
      <trkpt lat="48.82597" lon="1.90851">
        <ele>120.78</ele>
        <time>2012-01-18T13:14:48Z</time>
      </trkpt>
      <trkpt lat="48.82583" lon="1.90838">
        <ele>122.22</ele>
        <time>2012-01-18T13:15:01Z</time>
      </trkpt>
      <trkpt lat="48.82568" lon="1.90824">
        <ele>122.71</ele>
        <time>2012-01-18T13:15:15Z</time>
      </trkpt>
      <trkpt lat="48.82555" lon="1.9081">
        <ele>124.15</ele>
        <time>2012-01-18T13:15:29Z</time>
      </trkpt>
      <trkpt lat="48.82542" lon="1.90796">
        <ele>125.59</ele>
        <time>2012-01-18T13:15:42Z</time>
      </trkpt>
      <trkpt lat="48.82528" lon="1.90782">
        <ele>125.59</ele>
        <time>2012-01-18T13:15:56Z</time>
      </trkpt>
      <trkpt lat="48.82514" lon="1.90768">
        <ele>125.11</ele>
        <time>2012-01-18T13:16:10Z</time>
      </trkpt>
      <trkpt lat="48.82502" lon="1.90755">
        <ele>126.07</ele>
        <time>2012-01-18T13:16:24Z</time>
      </trkpt>
      <trkpt lat="48.82493" lon="1.90746">
        <ele>126.55</ele>
        <time>2012-01-18T13:16:33Z</time>
      </trkpt>
      <trkpt lat="48.82483" lon="1.90738">
        <ele>127.99</ele>
        <time>2012-01-18T13:16:43Z</time>
      </trkpt>
      <trkpt lat="48.82482" lon="1.90731">
        <ele>128.47</ele>
        <time>2012-01-18T13:16:47Z</time>
      </trkpt>
      <trkpt lat="48.82495" lon="1.90713">
        <ele>128.95</ele>
        <time>2012-01-18T13:17:02Z</time>
      </trkpt>
      <trkpt lat="48.82499" lon="1.90706">
        <ele>128.95</ele>
        <time>2012-01-18T13:17:14Z</time>
      </trkpt>
      <trkpt lat="48.82515" lon="1.90689">
        <ele>128.47</ele>
        <time>2012-01-18T13:17:28Z</time>
      </trkpt>
      <trkpt lat="48.82532" lon="1.90671">
        <ele>128.47</ele>
        <time>2012-01-18T13:17:43Z</time>
      </trkpt>
      <trkpt lat="48.82539" lon="1.90659">
        <ele>128.47</ele>
        <time>2012-01-18T13:17:51Z</time>
      </trkpt>
      <trkpt lat="48.82546" lon="1.90649">
        <ele>127.99</ele>
        <time>2012-01-18T13:17:58Z</time>
      </trkpt>
      <trkpt lat="48.82559" lon="1.90621">
        <ele>127.99</ele>
        <time>2012-01-18T13:18:15Z</time>
      </trkpt>
      <trkpt lat="48.82571" lon="1.90596">
        <ele>128.47</ele>
        <time>2012-01-18T13:18:30Z</time>
      </trkpt>
      <trkpt lat="48.82583" lon="1.90566">
        <ele>127.99</ele>
        <time>2012-01-18T13:18:47Z</time>
      </trkpt>
      <trkpt lat="48.82594" lon="1.90542">
        <ele>127.99</ele>
        <time>2012-01-18T13:19:02Z</time>
      </trkpt>
      <trkpt lat="48.82606" lon="1.90517">
        <ele>127.51</ele>
        <time>2012-01-18T13:19:17Z</time>
      </trkpt>
      <trkpt lat="48.82616" lon="1.90494">
        <ele>127.51</ele>
        <time>2012-01-18T13:19:31Z</time>
      </trkpt>
      <trkpt lat="48.82618" lon="1.90488">
        <ele>127.51</ele>
        <time>2012-01-18T13:19:46Z</time>
      </trkpt>
      <trkpt lat="48.82619" lon="1.90487">
        <ele>127.51</ele>
        <time>2012-01-18T13:19:59Z</time>
      </trkpt>
      <trkpt lat="48.82621" lon="1.90484">
        <ele>127.51</ele>
        <time>2012-01-18T13:20:02Z</time>
      </trkpt>
      <trkpt lat="48.82626" lon="1.90475">
        <ele>127.51</ele>
        <time>2012-01-18T13:20:08Z</time>
      </trkpt>
      <trkpt lat="48.8264" lon="1.90443">
        <ele>125.59</ele>
        <time>2012-01-18T13:20:26Z</time>
      </trkpt>
      <trkpt lat="48.82652" lon="1.90417">
        <ele>125.59</ele>
        <time>2012-01-18T13:20:41Z</time>
      </trkpt>
      <trkpt lat="48.82664" lon="1.90393">
        <ele>125.11</ele>
        <time>2012-01-18T13:20:55Z</time>
      </trkpt>
      <trkpt lat="48.82677" lon="1.90366">
        <ele>125.11</ele>
        <time>2012-01-18T13:21:11Z</time>
      </trkpt>
      <trkpt lat="48.82689" lon="1.90339">
        <ele>124.15</ele>
        <time>2012-01-18T13:21:27Z</time>
      </trkpt>
      <trkpt lat="48.82696" lon="1.90323">
        <ele>123.67</ele>
        <time>2012-01-18T13:21:38Z</time>
      </trkpt>
      <trkpt lat="48.82707" lon="1.90292">
        <ele>125.11</ele>
        <time>2012-01-18T13:21:54Z</time>
      </trkpt>
      <trkpt lat="48.82716" lon="1.90266">
        <ele>124.15</ele>
        <time>2012-01-18T13:22:08Z</time>
      </trkpt>
      <trkpt lat="48.82726" lon="1.90241">
        <ele>124.15</ele>
        <time>2012-01-18T13:22:22Z</time>
      </trkpt>
      <trkpt lat="48.8273" lon="1.90211">
        <ele>125.11</ele>
        <time>2012-01-18T13:22:37Z</time>
      </trkpt>
      <trkpt lat="48.82732" lon="1.90181">
        <ele>124.63</ele>
        <time>2012-01-18T13:22:52Z</time>
      </trkpt>
      <trkpt lat="48.82732" lon="1.90153">
        <ele>124.15</ele>
        <time>2012-01-18T13:23:06Z</time>
      </trkpt>
      <trkpt lat="48.82732" lon="1.90125">
        <ele>124.63</ele>
        <time>2012-01-18T13:23:20Z</time>
      </trkpt>
      <trkpt lat="48.82731" lon="1.90101">
        <ele>123.67</ele>
        <time>2012-01-18T13:23:33Z</time>
      </trkpt>
      <trkpt lat="48.82729" lon="1.90065">
        <ele>122.71</ele>
        <time>2012-01-18T13:23:50Z</time>
      </trkpt>
      <trkpt lat="48.82727" lon="1.90032">
        <ele>121.74</ele>
        <time>2012-01-18T13:24:06Z</time>
      </trkpt>
      <trkpt lat="48.82725" lon="1.90004">
        <ele>122.71</ele>
        <time>2012-01-18T13:24:20Z</time>
      </trkpt>
      <trkpt lat="48.82724" lon="1.89967">
        <ele>124.15</ele>
        <time>2012-01-18T13:24:37Z</time>
      </trkpt>
      <trkpt lat="48.82725" lon="1.89938">
        <ele>125.59</ele>
        <time>2012-01-18T13:24:51Z</time>
      </trkpt>
      <trkpt lat="48.82726" lon="1.89908">
        <ele>126.07</ele>
        <time>2012-01-18T13:25:06Z</time>
      </trkpt>
      <trkpt lat="48.82728" lon="1.89881">
        <ele>126.55</ele>
        <time>2012-01-18T13:25:20Z</time>
      </trkpt>
      <trkpt lat="48.82731" lon="1.8985">
        <ele>126.55</ele>
        <time>2012-01-18T13:25:35Z</time>
      </trkpt>
      <trkpt lat="48.82733" lon="1.89815">
        <ele>125.59</ele>
        <time>2012-01-18T13:25:51Z</time>
      </trkpt>
      <trkpt lat="48.82735" lon="1.89781">
        <ele>125.11</ele>
        <time>2012-01-18T13:26:08Z</time>
      </trkpt>
      <trkpt lat="48.82734" lon="1.89769">
        <ele>124.63</ele>
        <time>2012-01-18T13:26:14Z</time>
      </trkpt>
      <trkpt lat="48.82735" lon="1.89736">
        <ele>123.67</ele>
        <time>2012-01-18T13:26:30Z</time>
      </trkpt>
      <trkpt lat="48.82735" lon="1.89709">
        <ele>124.15</ele>
        <time>2012-01-18T13:26:43Z</time>
      </trkpt>
      <trkpt lat="48.82736" lon="1.89677">
        <ele>124.15</ele>
        <time>2012-01-18T13:26:58Z</time>
      </trkpt>
      <trkpt lat="48.82737" lon="1.89646">
        <ele>123.19</ele>
        <time>2012-01-18T13:27:13Z</time>
      </trkpt>
      <trkpt lat="48.8274" lon="1.89618">
        <ele>123.67</ele>
        <time>2012-01-18T13:27:26Z</time>
      </trkpt>
      <trkpt lat="48.82742" lon="1.89583">
        <ele>123.19</ele>
        <time>2012-01-18T13:27:42Z</time>
      </trkpt>
      <trkpt lat="48.82743" lon="1.89554">
        <ele>121.74</ele>
        <time>2012-01-18T13:27:56Z</time>
      </trkpt>
      <trkpt lat="48.82741" lon="1.8952">
        <ele>121.74</ele>
        <time>2012-01-18T13:28:12Z</time>
      </trkpt>
      <trkpt lat="48.82741" lon="1.8951">
        <ele>120.78</ele>
        <time>2012-01-18T13:28:17Z</time>
      </trkpt>
      <trkpt lat="48.8274" lon="1.89475">
        <ele>118.38</ele>
        <time>2012-01-18T13:28:33Z</time>
      </trkpt>
      <trkpt lat="48.82738" lon="1.89446">
        <ele>117.9</ele>
        <time>2012-01-18T13:28:47Z</time>
      </trkpt>
      <trkpt lat="48.8274" lon="1.89409">
        <ele>116.46</ele>
        <time>2012-01-18T13:29:04Z</time>
      </trkpt>
      <trkpt lat="48.82741" lon="1.89397">
        <ele>117.42</ele>
        <time>2012-01-18T13:29:10Z</time>
      </trkpt>
      <trkpt lat="48.82741" lon="1.89389">
        <ele>117.42</ele>
        <time>2012-01-18T13:29:14Z</time>
      </trkpt>
      <trkpt lat="48.8274" lon="1.8935">
        <ele>118.38</ele>
        <time>2012-01-18T13:29:32Z</time>
      </trkpt>
      <trkpt lat="48.8274" lon="1.89346">
        <ele>118.38</ele>
        <time>2012-01-18T13:29:49Z</time>
      </trkpt>
      <trkpt lat="48.82737" lon="1.89331">
        <ele>117.9</ele>
        <time>2012-01-18T13:30:08Z</time>
      </trkpt>
      <trkpt lat="48.82736" lon="1.89323">
        <ele>117.42</ele>
        <time>2012-01-18T13:30:12Z</time>
      </trkpt>
      <trkpt lat="48.82733" lon="1.89312">
        <ele>116.94</ele>
        <time>2012-01-18T13:30:18Z</time>
      </trkpt>
      <trkpt lat="48.82725" lon="1.89279">
        <ele>113.57</ele>
        <time>2012-01-18T13:30:34Z</time>
      </trkpt>
      <trkpt lat="48.82719" lon="1.89253">
        <ele>113.09</ele>
        <time>2012-01-18T13:30:47Z</time>
      </trkpt>
      <trkpt lat="48.82711" lon="1.8922">
        <ele>112.13</ele>
        <time>2012-01-18T13:31:03Z</time>
      </trkpt>
      <trkpt lat="48.82704" lon="1.89194">
        <ele>112.13</ele>
        <time>2012-01-18T13:31:17Z</time>
      </trkpt>
      <trkpt lat="48.82699" lon="1.89163">
        <ele>110.21</ele>
        <time>2012-01-18T13:31:32Z</time>
      </trkpt>
      <trkpt lat="48.82695" lon="1.89138">
        <ele>109.73</ele>
        <time>2012-01-18T13:31:44Z</time>
      </trkpt>
      <trkpt lat="48.8269" lon="1.89108">
        <ele>108.29</ele>
        <time>2012-01-18T13:31:59Z</time>
      </trkpt>
      <trkpt lat="48.82679" lon="1.89078">
        <ele>106.84</ele>
        <time>2012-01-18T13:32:15Z</time>
      </trkpt>
      <trkpt lat="48.82663" lon="1.89049">
        <ele>104.92</ele>
        <time>2012-01-18T13:32:33Z</time>
      </trkpt>
      <trkpt lat="48.8265" lon="1.89023">
        <ele>103</ele>
        <time>2012-01-18T13:32:48Z</time>
      </trkpt>
      <trkpt lat="48.82636" lon="1.88996">
        <ele>101.56</ele>
        <time>2012-01-18T13:33:05Z</time>
      </trkpt>
      <trkpt lat="48.82623" lon="1.88971">
        <ele>101.56</ele>
        <time>2012-01-18T13:33:20Z</time>
      </trkpt>
      <trkpt lat="48.8261" lon="1.88946">
        <ele>100.6</ele>
        <time>2012-01-18T13:33:36Z</time>
      </trkpt>
      <trkpt lat="48.82595" lon="1.88919">
        <ele>100.6</ele>
        <time>2012-01-18T13:33:52Z</time>
      </trkpt>
      <trkpt lat="48.82579" lon="1.88892">
        <ele>100.11</ele>
        <time>2012-01-18T13:34:10Z</time>
      </trkpt>
      <trkpt lat="48.82565" lon="1.8887">
        <ele>100.11</ele>
        <time>2012-01-18T13:34:25Z</time>
      </trkpt>
      <trkpt lat="48.82551" lon="1.88847">
        <ele>99.15</ele>
        <time>2012-01-18T13:34:40Z</time>
      </trkpt>
      <trkpt lat="48.82538" lon="1.88828">
        <ele>98.19</ele>
        <time>2012-01-18T13:34:52Z</time>
      </trkpt>
      <trkpt lat="48.82525" lon="1.88805">
        <ele>97.23</ele>
        <time>2012-01-18T13:35:07Z</time>
      </trkpt>
      <trkpt lat="48.8251" lon="1.88779">
        <ele>96.75</ele>
        <time>2012-01-18T13:35:23Z</time>
      </trkpt>
      <trkpt lat="48.82493" lon="1.88752">
        <ele>95.79</ele>
        <time>2012-01-18T13:35:41Z</time>
      </trkpt>
      <trkpt lat="48.82475" lon="1.88723">
        <ele>96.27</ele>
        <time>2012-01-18T13:36:00Z</time>
      </trkpt>
      <trkpt lat="48.82459" lon="1.88697">
        <ele>94.83</ele>
        <time>2012-01-18T13:36:16Z</time>
      </trkpt>
      <trkpt lat="48.82443" lon="1.88673">
        <ele>94.35</ele>
        <time>2012-01-18T13:36:32Z</time>
      </trkpt>
      <trkpt lat="48.82425" lon="1.88646">
        <ele>92.42</ele>
        <time>2012-01-18T13:36:50Z</time>
      </trkpt>
      <trkpt lat="48.8241" lon="1.88622">
        <ele>91.46</ele>
        <time>2012-01-18T13:37:05Z</time>
      </trkpt>
      <trkpt lat="48.82407" lon="1.88591">
        <ele>90.5</ele>
        <time>2012-01-18T13:37:20Z</time>
      </trkpt>
      <trkpt lat="48.82407" lon="1.88589">
        <ele>90.5</ele>
        <time>2012-01-18T13:37:21Z</time>
      </trkpt>
      <trkpt lat="48.82406" lon="1.8858">
        <ele>90.5</ele>
        <time>2012-01-18T13:37:26Z</time>
      </trkpt>
      <trkpt lat="48.82398" lon="1.88551">
        <ele>90.02</ele>
        <time>2012-01-18T13:37:42Z</time>
      </trkpt>
      <trkpt lat="48.82392" lon="1.88541">
        <ele>89.54</ele>
        <time>2012-01-18T13:37:57Z</time>
      </trkpt>
      <trkpt lat="48.8239" lon="1.88537">
        <ele>89.54</ele>
        <time>2012-01-18T13:38:14Z</time>
      </trkpt>
      <trkpt lat="48.82374" lon="1.88515">
        <ele>89.54</ele>
        <time>2012-01-18T13:38:30Z</time>
      </trkpt>
      <trkpt lat="48.82358" lon="1.88495">
        <ele>89.54</ele>
        <time>2012-01-18T13:38:45Z</time>
      </trkpt>
      <trkpt lat="48.82339" lon="1.88483">
        <ele>89.54</ele>
        <time>2012-01-18T13:39:01Z</time>
      </trkpt>
      <trkpt lat="48.82318" lon="1.88492">
        <ele>90.02</ele>
        <time>2012-01-18T13:39:17Z</time>
      </trkpt>
      <trkpt lat="48.823" lon="1.88498">
        <ele>90.5</ele>
        <time>2012-01-18T13:39:31Z</time>
      </trkpt>
      <trkpt lat="48.82278" lon="1.88504">
        <ele>90.98</ele>
        <time>2012-01-18T13:39:48Z</time>
      </trkpt>
      <trkpt lat="48.82258" lon="1.8851">
        <ele>91.94</ele>
        <time>2012-01-18T13:40:03Z</time>
      </trkpt>
      <trkpt lat="48.82236" lon="1.88511">
        <ele>92.9</ele>
        <time>2012-01-18T13:40:19Z</time>
      </trkpt>
      <trkpt lat="48.82227" lon="1.88512">
        <ele>93.87</ele>
        <time>2012-01-18T13:40:27Z</time>
      </trkpt>
      <trkpt lat="48.82215" lon="1.88493">
        <ele>94.35</ele>
        <time>2012-01-18T13:40:41Z</time>
      </trkpt>
      <trkpt lat="48.82211" lon="1.88463">
        <ele>93.87</ele>
        <time>2012-01-18T13:40:55Z</time>
      </trkpt>
      <trkpt lat="48.82207" lon="1.88432">
        <ele>92.42</ele>
        <time>2012-01-18T13:41:10Z</time>
      </trkpt>
      <trkpt lat="48.82201" lon="1.88399">
        <ele>89.06</ele>
        <time>2012-01-18T13:41:26Z</time>
      </trkpt>
      <trkpt lat="48.82197" lon="1.88366">
        <ele>86.18</ele>
        <time>2012-01-18T13:41:42Z</time>
      </trkpt>
      <trkpt lat="48.8219" lon="1.88334">
        <ele>83.77</ele>
        <time>2012-01-18T13:41:58Z</time>
      </trkpt>
      <trkpt lat="48.82182" lon="1.88301">
        <ele>82.33</ele>
        <time>2012-01-18T13:42:14Z</time>
      </trkpt>
      <trkpt lat="48.82174" lon="1.88272">
        <ele>81.37</ele>
        <time>2012-01-18T13:42:29Z</time>
      </trkpt>
      <trkpt lat="48.82166" lon="1.88245">
        <ele>79.45</ele>
        <time>2012-01-18T13:42:44Z</time>
      </trkpt>
      <trkpt lat="48.82165" lon="1.88241">
        <ele>78.97</ele>
        <time>2012-01-18T13:42:46Z</time>
      </trkpt>
      <trkpt lat="48.82162" lon="1.88233">
        <ele>78</ele>
        <time>2012-01-18T13:42:50Z</time>
      </trkpt>
      <trkpt lat="48.8216" lon="1.88224">
        <ele>76.56</ele>
        <time>2012-01-18T13:42:55Z</time>
      </trkpt>
      <trkpt lat="48.82151" lon="1.88187">
        <ele>75.12</ele>
        <time>2012-01-18T13:43:13Z</time>
      </trkpt>
      <trkpt lat="48.8214" lon="1.88155">
        <ele>74.64</ele>
        <time>2012-01-18T13:43:30Z</time>
      </trkpt>
      <trkpt lat="48.82128" lon="1.88125">
        <ele>75.12</ele>
        <time>2012-01-18T13:43:47Z</time>
      </trkpt>
      <trkpt lat="48.82116" lon="1.88094">
        <ele>75.12</ele>
        <time>2012-01-18T13:44:04Z</time>
      </trkpt>
      <trkpt lat="48.82116" lon="1.88064">
        <ele>74.16</ele>
        <time>2012-01-18T13:44:18Z</time>
      </trkpt>
      <trkpt lat="48.82119" lon="1.88033">
        <ele>73.2</ele>
        <time>2012-01-18T13:44:33Z</time>
      </trkpt>
      <trkpt lat="48.82122" lon="1.88024">
        <ele>73.2</ele>
        <time>2012-01-18T13:44:45Z</time>
      </trkpt>
      <trkpt lat="48.8212" lon="1.88018">
        <ele>73.68</ele>
        <time>2012-01-18T13:44:49Z</time>
      </trkpt>
      <trkpt lat="48.82117" lon="1.87991">
        <ele>73.68</ele>
        <time>2012-01-18T13:45:03Z</time>
      </trkpt>
      <trkpt lat="48.82117" lon="1.8799">
        <ele>73.68</ele>
        <time>2012-01-18T13:45:22Z</time>
      </trkpt>
      <trkpt lat="48.82115" lon="1.8799">
        <ele>73.68</ele>
        <time>2012-01-18T13:45:37Z</time>
      </trkpt>
      <trkpt lat="48.82114" lon="1.87989">
        <ele>73.68</ele>
        <time>2012-01-18T13:45:48Z</time>
      </trkpt>
      <trkpt lat="48.82099" lon="1.87989">
        <ele>74.64</ele>
        <time>2012-01-18T13:46:01Z</time>
      </trkpt>
      <trkpt lat="48.8208" lon="1.87988">
        <ele>75.6</ele>
        <time>2012-01-18T13:46:16Z</time>
      </trkpt>
      <trkpt lat="48.82068" lon="1.87989">
        <ele>76.08</ele>
        <time>2012-01-18T13:46:25Z</time>
      </trkpt>
      <trkpt lat="48.82044" lon="1.87988">
        <ele>77.04</ele>
        <time>2012-01-18T13:46:41Z</time>
      </trkpt>
      <trkpt lat="48.8204" lon="1.87989">
        <ele>77.04</ele>
        <time>2012-01-18T13:46:49Z</time>
      </trkpt>
      <trkpt lat="48.82034" lon="1.87988">
        <ele>77.04</ele>
        <time>2012-01-18T13:46:53Z</time>
      </trkpt>
      <trkpt lat="48.82007" lon="1.87987">
        <ele>75.6</ele>
        <time>2012-01-18T13:47:11Z</time>
      </trkpt>
      <trkpt lat="48.81985" lon="1.87983">
        <ele>75.12</ele>
        <time>2012-01-18T13:47:27Z</time>
      </trkpt>
      <trkpt lat="48.81966" lon="1.87983">
        <ele>75.6</ele>
        <time>2012-01-18T13:47:41Z</time>
      </trkpt>
      <trkpt lat="48.81948" lon="1.87981">
        <ele>76.08</ele>
        <time>2012-01-18T13:47:54Z</time>
      </trkpt>
      <trkpt lat="48.8194" lon="1.87985">
        <ele>75.6</ele>
        <time>2012-01-18T13:48:01Z</time>
      </trkpt>
      <trkpt lat="48.81923" lon="1.87982">
        <ele>75.6</ele>
        <time>2012-01-18T13:48:15Z</time>
      </trkpt>
      <trkpt lat="48.81907" lon="1.87975">
        <ele>75.6</ele>
        <time>2012-01-18T13:48:30Z</time>
      </trkpt>
      <trkpt lat="48.81891" lon="1.87966">
        <ele>75.6</ele>
        <time>2012-01-18T13:48:43Z</time>
      </trkpt>
      <trkpt lat="48.81872" lon="1.87955">
        <ele>75.12</ele>
        <time>2012-01-18T13:48:58Z</time>
      </trkpt>
      <trkpt lat="48.81854" lon="1.87941">
        <ele>74.64</ele>
        <time>2012-01-18T13:49:12Z</time>
      </trkpt>
      <trkpt lat="48.81843" lon="1.87932">
        <ele>75.12</ele>
        <time>2012-01-18T13:49:22Z</time>
      </trkpt>
      <trkpt lat="48.81844" lon="1.87929">
        <ele>74.16</ele>
        <time>2012-01-18T13:49:33Z</time>
      </trkpt>
      <trkpt lat="48.81842" lon="1.87926">
        <ele>73.68</ele>
        <time>2012-01-18T13:49:45Z</time>
      </trkpt>
      <trkpt lat="48.81841" lon="1.87924">
        <ele>73.68</ele>
        <time>2012-01-18T13:49:46Z</time>
      </trkpt>
      <trkpt lat="48.8184" lon="1.8792">
        <ele>73.2</ele>
        <time>2012-01-18T13:49:48Z</time>
      </trkpt>
      <trkpt lat="48.81835" lon="1.87893">
        <ele>72.72</ele>
        <time>2012-01-18T13:50:02Z</time>
      </trkpt>
      <trkpt lat="48.81835" lon="1.87864">
        <ele>72.72</ele>
        <time>2012-01-18T13:50:16Z</time>
      </trkpt>
      <trkpt lat="48.81836" lon="1.87837">
        <ele>71.27</ele>
        <time>2012-01-18T13:50:30Z</time>
      </trkpt>
      <trkpt lat="48.81836" lon="1.87804">
        <ele>70.31</ele>
        <time>2012-01-18T13:50:45Z</time>
      </trkpt>
      <trkpt lat="48.81834" lon="1.87784">
        <ele>69.35</ele>
        <time>2012-01-18T13:50:54Z</time>
      </trkpt>
      <trkpt lat="48.81834" lon="1.87775">
        <ele>68.87</ele>
        <time>2012-01-18T13:50:59Z</time>
      </trkpt>
      <trkpt lat="48.81828" lon="1.87738">
        <ele>67.43</ele>
        <time>2012-01-18T13:51:16Z</time>
      </trkpt>
      <trkpt lat="48.81819" lon="1.87706">
        <ele>67.91</ele>
        <time>2012-01-18T13:51:32Z</time>
      </trkpt>
      <trkpt lat="48.81807" lon="1.87677">
        <ele>66.47</ele>
        <time>2012-01-18T13:51:48Z</time>
      </trkpt>
      <trkpt lat="48.81806" lon="1.87676">
        <ele>65.99</ele>
        <time>2012-01-18T13:51:53Z</time>
      </trkpt>
      <trkpt lat="48.81803" lon="1.87662">
        <ele>64.55</ele>
        <time>2012-01-18T13:52:06Z</time>
      </trkpt>
      <trkpt lat="48.81793" lon="1.87639">
        <ele>63.1</ele>
        <time>2012-01-18T13:52:21Z</time>
      </trkpt>
      <trkpt lat="48.81782" lon="1.87627">
        <ele>65.03</ele>
        <time>2012-01-18T13:52:32Z</time>
      </trkpt>
      <trkpt lat="48.81771" lon="1.87626">
        <ele>65.03</ele>
        <time>2012-01-18T13:52:50Z</time>
      </trkpt>
      <trkpt lat="48.81771" lon="1.87626">
        <ele>65.03</ele>
        <time>2012-01-18T13:53:11Z</time>
      </trkpt>
      <trkpt lat="48.81774" lon="1.87623">
        <ele>65.03</ele>
        <time>2012-01-18T13:53:24Z</time>
      </trkpt>
      <trkpt lat="48.81774" lon="1.87623">
        <ele>65.03</ele>
        <time>2012-01-18T13:53:28Z</time>
      </trkpt>
      <trkpt lat="48.81778" lon="1.87615">
        <ele>64.55</ele>
        <time>2012-01-18T13:53:33Z</time>
      </trkpt>
      <trkpt lat="48.81784" lon="1.87608">
        <ele>64.55</ele>
        <time>2012-01-18T13:53:38Z</time>
      </trkpt>
      <trkpt lat="48.81777" lon="1.87574">
        <ele>64.07</ele>
        <time>2012-01-18T13:53:54Z</time>
      </trkpt>
      <trkpt lat="48.81766" lon="1.87541">
        <ele>65.03</ele>
        <time>2012-01-18T13:54:11Z</time>
      </trkpt>
      <trkpt lat="48.81761" lon="1.87524">
        <ele>64.07</ele>
        <time>2012-01-18T13:54:24Z</time>
      </trkpt>
      <trkpt lat="48.81749" lon="1.87494">
        <ele>64.55</ele>
        <time>2012-01-18T13:54:40Z</time>
      </trkpt>
      <trkpt lat="48.81738" lon="1.87465">
        <ele>64.55</ele>
        <time>2012-01-18T13:54:55Z</time>
      </trkpt>
      <trkpt lat="48.81727" lon="1.87434">
        <ele>64.55</ele>
        <time>2012-01-18T13:55:11Z</time>
      </trkpt>
      <trkpt lat="48.81716" lon="1.87401">
        <ele>64.07</ele>
        <time>2012-01-18T13:55:28Z</time>
      </trkpt>
      <trkpt lat="48.81702" lon="1.87367">
        <ele>63.58</ele>
        <time>2012-01-18T13:55:46Z</time>
      </trkpt>
      <trkpt lat="48.81692" lon="1.8734">
        <ele>63.1</ele>
        <time>2012-01-18T13:56:00Z</time>
      </trkpt>
      <trkpt lat="48.8168" lon="1.8731">
        <ele>61.66</ele>
        <time>2012-01-18T13:56:16Z</time>
      </trkpt>
      <trkpt lat="48.81668" lon="1.87283">
        <ele>60.7</ele>
        <time>2012-01-18T13:56:31Z</time>
      </trkpt>
      <trkpt lat="48.81656" lon="1.87255">
        <ele>60.22</ele>
        <time>2012-01-18T13:56:46Z</time>
      </trkpt>
      <trkpt lat="48.81642" lon="1.87227">
        <ele>59.74</ele>
        <time>2012-01-18T13:57:02Z</time>
      </trkpt>
      <trkpt lat="48.81626" lon="1.87202">
        <ele>58.3</ele>
        <time>2012-01-18T13:57:18Z</time>
      </trkpt>
      <trkpt lat="48.81608" lon="1.87172">
        <ele>54.93</ele>
        <time>2012-01-18T13:57:36Z</time>
      </trkpt>
      <trkpt lat="48.81596" lon="1.87146">
        <ele>55.41</ele>
        <time>2012-01-18T13:57:50Z</time>
      </trkpt>
      <trkpt lat="48.81584" lon="1.87115">
        <ele>54.93</ele>
        <time>2012-01-18T13:58:06Z</time>
      </trkpt>
      <trkpt lat="48.81574" lon="1.87082">
        <ele>53.97</ele>
        <time>2012-01-18T13:58:22Z</time>
      </trkpt>
      <trkpt lat="48.81564" lon="1.87048">
        <ele>52.05</ele>
        <time>2012-01-18T13:58:39Z</time>
      </trkpt>
      <trkpt lat="48.81559" lon="1.87016">
        <ele>52.53</ele>
        <time>2012-01-18T13:58:54Z</time>
      </trkpt>
      <trkpt lat="48.81555" lon="1.86993">
        <ele>53.97</ele>
        <time>2012-01-18T13:59:07Z</time>
      </trkpt>
      <trkpt lat="48.81555" lon="1.86993">
        <ele>53.97</ele>
        <time>2012-01-18T13:59:22Z</time>
      </trkpt>
      <trkpt lat="48.81559" lon="1.86981">
        <ele>54.45</ele>
        <time>2012-01-18T13:59:28Z</time>
      </trkpt>
      <trkpt lat="48.81571" lon="1.86956">
        <ele>52.53</ele>
        <time>2012-01-18T13:59:43Z</time>
      </trkpt>
      <trkpt lat="48.81572" lon="1.86953">
        <ele>52.05</ele>
        <time>2012-01-18T13:59:45Z</time>
      </trkpt>
      <trkpt lat="48.81575" lon="1.86931">
        <ele>51.57</ele>
        <time>2012-01-18T13:59:55Z</time>
      </trkpt>
      <trkpt lat="48.8159" lon="1.86907">
        <ele>50.13</ele>
        <time>2012-01-18T14:00:12Z</time>
      </trkpt>
      <trkpt lat="48.81606" lon="1.86881">
        <ele>52.05</ele>
        <time>2012-01-18T14:00:27Z</time>
      </trkpt>
      <trkpt lat="48.81615" lon="1.86853">
        <ele>53.49</ele>
        <time>2012-01-18T14:00:41Z</time>
      </trkpt>
      <trkpt lat="48.81621" lon="1.86821">
        <ele>53.97</ele>
        <time>2012-01-18T14:00:57Z</time>
      </trkpt>
      <trkpt lat="48.81628" lon="1.86789">
        <ele>58.78</ele>
        <time>2012-01-18T14:01:15Z</time>
      </trkpt>
      <trkpt lat="48.8162" lon="1.86749">
        <ele>63.1</ele>
        <time>2012-01-18T14:01:35Z</time>
      </trkpt>
      <trkpt lat="48.81608" lon="1.86718">
        <ele>64.07</ele>
        <time>2012-01-18T14:01:49Z</time>
      </trkpt>
      <trkpt lat="48.816" lon="1.86704">
        <ele>64.55</ele>
        <time>2012-01-18T14:01:56Z</time>
      </trkpt>
      <trkpt lat="48.81587" lon="1.86672">
        <ele>62.62</ele>
        <time>2012-01-18T14:02:12Z</time>
      </trkpt>
      <trkpt lat="48.81573" lon="1.86642">
        <ele>56.86</ele>
        <time>2012-01-18T14:02:29Z</time>
      </trkpt>
      <trkpt lat="48.81562" lon="1.86614">
        <ele>49.16</ele>
        <time>2012-01-18T14:02:46Z</time>
      </trkpt>
      <trkpt lat="48.81555" lon="1.86601">
        <ele>46.28</ele>
        <time>2012-01-18T14:02:56Z</time>
      </trkpt>
      <trkpt lat="48.81549" lon="1.86593">
        <ele>43.88</ele>
        <time>2012-01-18T14:03:03Z</time>
      </trkpt>
      <trkpt lat="48.81538" lon="1.86565">
        <ele>40.03</ele>
        <time>2012-01-18T14:03:20Z</time>
      </trkpt>
      <trkpt lat="48.81535" lon="1.86551">
        <ele>43.88</ele>
        <time>2012-01-18T14:03:28Z</time>
      </trkpt>
      <trkpt lat="48.81527" lon="1.86524">
        <ele>48.68</ele>
        <time>2012-01-18T14:03:44Z</time>
      </trkpt>
      <trkpt lat="48.81525" lon="1.86502">
        <ele>55.89</ele>
        <time>2012-01-18T14:03:57Z</time>
      </trkpt>
      <trkpt lat="48.81525" lon="1.86497">
        <ele>57.82</ele>
        <time>2012-01-18T14:04:00Z</time>
      </trkpt>
      <trkpt lat="48.81522" lon="1.86484">
        <ele>61.18</ele>
        <time>2012-01-18T14:04:07Z</time>
      </trkpt>
      <trkpt lat="48.81511" lon="1.86453">
        <ele>64.55</ele>
        <time>2012-01-18T14:04:23Z</time>
      </trkpt>
      <trkpt lat="48.81511" lon="1.86427">
        <ele>65.51</ele>
        <time>2012-01-18T14:04:37Z</time>
      </trkpt>
      <trkpt lat="48.8151" lon="1.86405">
        <ele>65.99</ele>
        <time>2012-01-18T14:04:51Z</time>
      </trkpt>
      <trkpt lat="48.8151" lon="1.86405">
        <ele>65.99</ele>
        <time>2012-01-18T14:05:12Z</time>
      </trkpt>
      <trkpt lat="48.8151" lon="1.86405">
        <ele>65.99</ele>
        <time>2012-01-18T14:05:35Z</time>
      </trkpt>
      <trkpt lat="48.81509" lon="1.86392">
        <ele>67.43</ele>
        <time>2012-01-18T14:05:49Z</time>
      </trkpt>
      <trkpt lat="48.81491" lon="1.86386">
        <ele>67.91</ele>
        <time>2012-01-18T14:06:04Z</time>
      </trkpt>
      <trkpt lat="48.81481" lon="1.86385">
        <ele>67.43</ele>
        <time>2012-01-18T14:06:18Z</time>
      </trkpt>
      <trkpt lat="48.81469" lon="1.8638">
        <ele>68.39</ele>
        <time>2012-01-18T14:06:33Z</time>
      </trkpt>
      <trkpt lat="48.81447" lon="1.86374">
        <ele>70.79</ele>
        <time>2012-01-18T14:06:49Z</time>
      </trkpt>
      <trkpt lat="48.81429" lon="1.86358">
        <ele>71.76</ele>
        <time>2012-01-18T14:07:03Z</time>
      </trkpt>
      <trkpt lat="48.81423" lon="1.86334">
        <ele>68.87</ele>
        <time>2012-01-18T14:07:13Z</time>
      </trkpt>
      <trkpt lat="48.81422" lon="1.8633">
        <ele>68.39</ele>
        <time>2012-01-18T14:07:15Z</time>
      </trkpt>
      <trkpt lat="48.81421" lon="1.86322">
        <ele>67.43</ele>
        <time>2012-01-18T14:07:19Z</time>
      </trkpt>
      <trkpt lat="48.81416" lon="1.86304">
        <ele>63.58</ele>
        <time>2012-01-18T14:07:27Z</time>
      </trkpt>
      <trkpt lat="48.81411" lon="1.86269">
        <ele>60.22</ele>
        <time>2012-01-18T14:07:43Z</time>
      </trkpt>
      <trkpt lat="48.81411" lon="1.86249">
        <ele>60.7</ele>
        <time>2012-01-18T14:07:52Z</time>
      </trkpt>
      <trkpt lat="48.81409" lon="1.86246">
        <ele>60.22</ele>
        <time>2012-01-18T14:07:54Z</time>
      </trkpt>
      <trkpt lat="48.81403" lon="1.86209">
        <ele>58.78</ele>
        <time>2012-01-18T14:08:11Z</time>
      </trkpt>
      <trkpt lat="48.81402" lon="1.86195">
        <ele>59.26</ele>
        <time>2012-01-18T14:08:17Z</time>
      </trkpt>
      <trkpt lat="48.81394" lon="1.86168">
        <ele>58.3</ele>
        <time>2012-01-18T14:08:31Z</time>
      </trkpt>
      <trkpt lat="48.81378" lon="1.86144">
        <ele>57.34</ele>
        <time>2012-01-18T14:08:47Z</time>
      </trkpt>
      <trkpt lat="48.81364" lon="1.86132">
        <ele>56.86</ele>
        <time>2012-01-18T14:08:58Z</time>
      </trkpt>
      <trkpt lat="48.81337" lon="1.86112">
        <ele>54.93</ele>
        <time>2012-01-18T14:09:19Z</time>
      </trkpt>
      <trkpt lat="48.81316" lon="1.86101">
        <ele>57.34</ele>
        <time>2012-01-18T14:09:35Z</time>
      </trkpt>
      <trkpt lat="48.81294" lon="1.86088">
        <ele>55.89</ele>
        <time>2012-01-18T14:09:52Z</time>
      </trkpt>
      <trkpt lat="48.81288" lon="1.86085">
        <ele>55.89</ele>
        <time>2012-01-18T14:09:57Z</time>
      </trkpt>
      <trkpt lat="48.8128" lon="1.86085">
        <ele>56.37</ele>
        <time>2012-01-18T14:10:03Z</time>
      </trkpt>
      <trkpt lat="48.8126" lon="1.86071">
        <ele>57.82</ele>
        <time>2012-01-18T14:10:19Z</time>
      </trkpt>
      <trkpt lat="48.81241" lon="1.86051">
        <ele>57.82</ele>
        <time>2012-01-18T14:10:36Z</time>
      </trkpt>
      <trkpt lat="48.81223" lon="1.86034">
        <ele>57.34</ele>
        <time>2012-01-18T14:10:50Z</time>
      </trkpt>
      <trkpt lat="48.81202" lon="1.86014">
        <ele>57.82</ele>
        <time>2012-01-18T14:11:09Z</time>
      </trkpt>
      <trkpt lat="48.8118" lon="1.85996">
        <ele>58.3</ele>
        <time>2012-01-18T14:11:27Z</time>
      </trkpt>
      <trkpt lat="48.8116" lon="1.85977">
        <ele>58.78</ele>
        <time>2012-01-18T14:11:44Z</time>
      </trkpt>
      <trkpt lat="48.81139" lon="1.85958">
        <ele>59.74</ele>
        <time>2012-01-18T14:12:02Z</time>
      </trkpt>
      <trkpt lat="48.81118" lon="1.8594">
        <ele>60.7</ele>
        <time>2012-01-18T14:12:19Z</time>
      </trkpt>
      <trkpt lat="48.81098" lon="1.85924">
        <ele>61.18</ele>
        <time>2012-01-18T14:12:36Z</time>
      </trkpt>
      <trkpt lat="48.81076" lon="1.85907">
        <ele>62.62</ele>
        <time>2012-01-18T14:12:54Z</time>
      </trkpt>
      <trkpt lat="48.81055" lon="1.85892">
        <ele>63.1</ele>
        <time>2012-01-18T14:13:11Z</time>
      </trkpt>
      <trkpt lat="48.81036" lon="1.8588">
        <ele>63.58</ele>
        <time>2012-01-18T14:13:27Z</time>
      </trkpt>
      <trkpt lat="48.81018" lon="1.8587">
        <ele>64.07</ele>
        <time>2012-01-18T14:13:42Z</time>
      </trkpt>
      <trkpt lat="48.80996" lon="1.85855">
        <ele>65.51</ele>
        <time>2012-01-18T14:14:01Z</time>
      </trkpt>
      <trkpt lat="48.80975" lon="1.85843">
        <ele>65.99</ele>
        <time>2012-01-18T14:14:18Z</time>
      </trkpt>
      <trkpt lat="48.80951" lon="1.85828">
        <ele>66.95</ele>
        <time>2012-01-18T14:14:36Z</time>
      </trkpt>
      <trkpt lat="48.80931" lon="1.8582">
        <ele>66.95</ele>
        <time>2012-01-18T14:14:52Z</time>
      </trkpt>
      <trkpt lat="48.80908" lon="1.85812">
        <ele>67.91</ele>
        <time>2012-01-18T14:15:09Z</time>
      </trkpt>
      <trkpt lat="48.80886" lon="1.85806">
        <ele>67.43</ele>
        <time>2012-01-18T14:15:25Z</time>
      </trkpt>
      <trkpt lat="48.80858" lon="1.85799">
        <ele>67.91</ele>
        <time>2012-01-18T14:15:44Z</time>
      </trkpt>
      <trkpt lat="48.80836" lon="1.85793">
        <ele>68.39</ele>
        <time>2012-01-18T14:16:00Z</time>
      </trkpt>
      <trkpt lat="48.80812" lon="1.85786">
        <ele>68.39</ele>
        <time>2012-01-18T14:16:18Z</time>
      </trkpt>
      <trkpt lat="48.80784" lon="1.85776">
        <ele>68.87</ele>
        <time>2012-01-18T14:16:38Z</time>
      </trkpt>
      <trkpt lat="48.80769" lon="1.85771">
        <ele>68.87</ele>
        <time>2012-01-18T14:16:52Z</time>
      </trkpt>
      <trkpt lat="48.80743" lon="1.85761">
        <ele>69.83</ele>
        <time>2012-01-18T14:17:11Z</time>
      </trkpt>
      <trkpt lat="48.8072" lon="1.85751">
        <ele>70.31</ele>
        <time>2012-01-18T14:17:28Z</time>
      </trkpt>
      <trkpt lat="48.80695" lon="1.85739">
        <ele>70.31</ele>
        <time>2012-01-18T14:17:46Z</time>
      </trkpt>
      <trkpt lat="48.80671" lon="1.85726">
        <ele>71.27</ele>
        <time>2012-01-18T14:18:04Z</time>
      </trkpt>
      <trkpt lat="48.80647" lon="1.85711">
        <ele>70.79</ele>
        <time>2012-01-18T14:18:23Z</time>
      </trkpt>
      <trkpt lat="48.80623" lon="1.8569">
        <ele>70.31</ele>
        <time>2012-01-18T14:18:42Z</time>
      </trkpt>
      <trkpt lat="48.80603" lon="1.85671">
        <ele>69.83</ele>
        <time>2012-01-18T14:18:59Z</time>
      </trkpt>
      <trkpt lat="48.80583" lon="1.85654">
        <ele>69.35</ele>
        <time>2012-01-18T14:19:15Z</time>
      </trkpt>
      <trkpt lat="48.80561" lon="1.8564">
        <ele>68.87</ele>
        <time>2012-01-18T14:19:32Z</time>
      </trkpt>
      <trkpt lat="48.80539" lon="1.85625">
        <ele>68.39</ele>
        <time>2012-01-18T14:19:49Z</time>
      </trkpt>
      <trkpt lat="48.80516" lon="1.85609">
        <ele>67.43</ele>
        <time>2012-01-18T14:20:07Z</time>
      </trkpt>
      <trkpt lat="48.80494" lon="1.85592">
        <ele>68.87</ele>
        <time>2012-01-18T14:20:25Z</time>
      </trkpt>
      <trkpt lat="48.80487" lon="1.85585">
        <ele>68.39</ele>
        <time>2012-01-18T14:20:39Z</time>
      </trkpt>
      <trkpt lat="48.8048" lon="1.8558">
        <ele>67.43</ele>
        <time>2012-01-18T14:21:02Z</time>
      </trkpt>
      <trkpt lat="48.8048" lon="1.85578">
        <ele>67.43</ele>
        <time>2012-01-18T14:21:15Z</time>
      </trkpt>
      <trkpt lat="48.80478" lon="1.85578">
        <ele>67.43</ele>
        <time>2012-01-18T14:21:23Z</time>
      </trkpt>
      <trkpt lat="48.80471" lon="1.85572">
        <ele>67.91</ele>
        <time>2012-01-18T14:21:30Z</time>
      </trkpt>
      <trkpt lat="48.80461" lon="1.85565">
        <ele>67.43</ele>
        <time>2012-01-18T14:21:38Z</time>
      </trkpt>
      <trkpt lat="48.80459" lon="1.85565">
        <ele>67.43</ele>
        <time>2012-01-18T14:21:40Z</time>
      </trkpt>
      <trkpt lat="48.80456" lon="1.85566">
        <ele>67.91</ele>
        <time>2012-01-18T14:21:44Z</time>
      </trkpt>
      <trkpt lat="48.8044" lon="1.8555">
        <ele>68.39</ele>
        <time>2012-01-18T14:21:58Z</time>
      </trkpt>
      <trkpt lat="48.80424" lon="1.8553">
        <ele>66.95</ele>
        <time>2012-01-18T14:22:13Z</time>
      </trkpt>
      <trkpt lat="48.80408" lon="1.85511">
        <ele>62.62</ele>
        <time>2012-01-18T14:22:27Z</time>
      </trkpt>
      <trkpt lat="48.80402" lon="1.85504">
        <ele>61.66</ele>
        <time>2012-01-18T14:22:33Z</time>
      </trkpt>
      <trkpt lat="48.80388" lon="1.8549">
        <ele>61.66</ele>
        <time>2012-01-18T14:22:46Z</time>
      </trkpt>
      <trkpt lat="48.80372" lon="1.8547">
        <ele>63.58</ele>
        <time>2012-01-18T14:23:02Z</time>
      </trkpt>
      <trkpt lat="48.80357" lon="1.8545">
        <ele>64.55</ele>
        <time>2012-01-18T14:23:16Z</time>
      </trkpt>
      <trkpt lat="48.80339" lon="1.85424">
        <ele>66.95</ele>
        <time>2012-01-18T14:23:34Z</time>
      </trkpt>
      <trkpt lat="48.80337" lon="1.85422">
        <ele>67.43</ele>
        <time>2012-01-18T14:23:36Z</time>
      </trkpt>
      <trkpt lat="48.80332" lon="1.85417">
        <ele>67.43</ele>
        <time>2012-01-18T14:23:40Z</time>
      </trkpt>
      <trkpt lat="48.80316" lon="1.85396">
        <ele>67.91</ele>
        <time>2012-01-18T14:23:55Z</time>
      </trkpt>
      <trkpt lat="48.80301" lon="1.85375">
        <ele>67.91</ele>
        <time>2012-01-18T14:24:10Z</time>
      </trkpt>
      <trkpt lat="48.80286" lon="1.85353">
        <ele>66.47</ele>
        <time>2012-01-18T14:24:25Z</time>
      </trkpt>
      <trkpt lat="48.80279" lon="1.85334">
        <ele>65.03</ele>
        <time>2012-01-18T14:24:36Z</time>
      </trkpt>
      <trkpt lat="48.80278" lon="1.85327">
        <ele>65.51</ele>
        <time>2012-01-18T14:24:49Z</time>
      </trkpt>
      <trkpt lat="48.80278" lon="1.85327">
        <ele>65.51</ele>
        <time>2012-01-18T14:25:23Z</time>
      </trkpt>
      <trkpt lat="48.80278" lon="1.85327">
        <ele>65.51</ele>
        <time>2012-01-18T14:25:39Z</time>
      </trkpt>
      <trkpt lat="48.80278" lon="1.85328">
        <ele>65.51</ele>
        <time>2012-01-18T14:26:04Z</time>
      </trkpt>
      <trkpt lat="48.80277" lon="1.85327">
        <ele>65.51</ele>
        <time>2012-01-18T14:26:12Z</time>
      </trkpt>
      <trkpt lat="48.80266" lon="1.853">
        <ele>65.99</ele>
        <time>2012-01-18T14:26:28Z</time>
      </trkpt>
      <trkpt lat="48.80258" lon="1.85276">
        <ele>66.95</ele>
        <time>2012-01-18T14:26:42Z</time>
      </trkpt>
      <trkpt lat="48.80257" lon="1.85274">
        <ele>66.95</ele>
        <time>2012-01-18T14:26:43Z</time>
      </trkpt>
      <trkpt lat="48.80246" lon="1.85243">
        <ele>67.43</ele>
        <time>2012-01-18T14:27:00Z</time>
      </trkpt>
      <trkpt lat="48.80236" lon="1.85215">
        <ele>67.91</ele>
        <time>2012-01-18T14:27:16Z</time>
      </trkpt>
      <trkpt lat="48.80225" lon="1.85183">
        <ele>67.91</ele>
        <time>2012-01-18T14:27:33Z</time>
      </trkpt>
      <trkpt lat="48.80221" lon="1.8517">
        <ele>68.39</ele>
        <time>2012-01-18T14:27:40Z</time>
      </trkpt>
      <trkpt lat="48.80221" lon="1.85151">
        <ele>68.87</ele>
        <time>2012-01-18T14:27:54Z</time>
      </trkpt>
      <trkpt lat="48.8022" lon="1.85146">
        <ele>70.31</ele>
        <time>2012-01-18T14:28:02Z</time>
      </trkpt>
      <trkpt lat="48.80213" lon="1.85123">
        <ele>72.24</ele>
        <time>2012-01-18T14:28:17Z</time>
      </trkpt>
      <trkpt lat="48.80207" lon="1.85104">
        <ele>72.24</ele>
        <time>2012-01-18T14:28:30Z</time>
      </trkpt>
      <trkpt lat="48.80201" lon="1.85081">
        <ele>72.72</ele>
        <time>2012-01-18T14:28:44Z</time>
      </trkpt>
      <trkpt lat="48.80194" lon="1.85062">
        <ele>73.2</ele>
        <time>2012-01-18T14:28:57Z</time>
      </trkpt>
      <trkpt lat="48.80193" lon="1.85056">
        <ele>73.2</ele>
        <time>2012-01-18T14:29:01Z</time>
      </trkpt>
      <trkpt lat="48.80189" lon="1.85032">
        <ele>74.64</ele>
        <time>2012-01-18T14:29:15Z</time>
      </trkpt>
      <trkpt lat="48.80187" lon="1.85017">
        <ele>75.12</ele>
        <time>2012-01-18T14:29:24Z</time>
      </trkpt>
      <trkpt lat="48.80181" lon="1.85005">
        <ele>74.64</ele>
        <time>2012-01-18T14:29:39Z</time>
      </trkpt>
      <trkpt lat="48.80178" lon="1.84999">
        <ele>74.64</ele>
        <time>2012-01-18T14:29:49Z</time>
      </trkpt>
      <trkpt lat="48.80176" lon="1.8499">
        <ele>74.16</ele>
        <time>2012-01-18T14:29:54Z</time>
      </trkpt>
      <trkpt lat="48.80174" lon="1.84971">
        <ele>73.68</ele>
        <time>2012-01-18T14:30:06Z</time>
      </trkpt>
      <trkpt lat="48.80168" lon="1.84938">
        <ele>73.2</ele>
        <time>2012-01-18T14:30:22Z</time>
      </trkpt>
      <trkpt lat="48.80164" lon="1.84908">
        <ele>72.72</ele>
        <time>2012-01-18T14:30:37Z</time>
      </trkpt>
      <trkpt lat="48.80155" lon="1.84878">
        <ele>73.68</ele>
        <time>2012-01-18T14:30:53Z</time>
      </trkpt>
      <trkpt lat="48.80146" lon="1.84849">
        <ele>74.16</ele>
        <time>2012-01-18T14:31:09Z</time>
      </trkpt>
      <trkpt lat="48.80136" lon="1.8482">
        <ele>74.64</ele>
        <time>2012-01-18T14:31:24Z</time>
      </trkpt>
      <trkpt lat="48.80131" lon="1.84806">
        <ele>74.16</ele>
        <time>2012-01-18T14:31:36Z</time>
      </trkpt>
      <trkpt lat="48.80131" lon="1.84778">
        <ele>73.68</ele>
        <time>2012-01-18T14:31:50Z</time>
      </trkpt>
      <trkpt lat="48.80124" lon="1.84751">
        <ele>73.68</ele>
        <time>2012-01-18T14:32:05Z</time>
      </trkpt>
      <trkpt lat="48.80123" lon="1.84721">
        <ele>73.2</ele>
        <time>2012-01-18T14:32:20Z</time>
      </trkpt>
      <trkpt lat="48.80127" lon="1.84693">
        <ele>73.2</ele>
        <time>2012-01-18T14:32:34Z</time>
      </trkpt>
      <trkpt lat="48.80127" lon="1.84691">
        <ele>73.2</ele>
        <time>2012-01-18T14:32:35Z</time>
      </trkpt>
      <trkpt lat="48.80127" lon="1.84677">
        <ele>73.68</ele>
        <time>2012-01-18T14:32:42Z</time>
      </trkpt>
      <trkpt lat="48.80127" lon="1.84641">
        <ele>74.16</ele>
        <time>2012-01-18T14:32:59Z</time>
      </trkpt>
      <trkpt lat="48.80125" lon="1.84612">
        <ele>74.16</ele>
        <time>2012-01-18T14:33:14Z</time>
      </trkpt>
      <trkpt lat="48.8012" lon="1.84581">
        <ele>74.16</ele>
        <time>2012-01-18T14:33:29Z</time>
      </trkpt>
      <trkpt lat="48.80117" lon="1.84552">
        <ele>73.68</ele>
        <time>2012-01-18T14:33:43Z</time>
      </trkpt>
      <trkpt lat="48.80115" lon="1.84542">
        <ele>73.68</ele>
        <time>2012-01-18T14:33:57Z</time>
      </trkpt>
      <trkpt lat="48.80113" lon="1.84531">
        <ele>73.68</ele>
        <time>2012-01-18T14:34:30Z</time>
      </trkpt>
      <trkpt lat="48.80109" lon="1.84497">
        <ele>74.16</ele>
        <time>2012-01-18T14:34:46Z</time>
      </trkpt>
      <trkpt lat="48.80108" lon="1.84495">
        <ele>74.64</ele>
        <time>2012-01-18T14:34:47Z</time>
      </trkpt>
      <trkpt lat="48.80106" lon="1.84487">
        <ele>74.16</ele>
        <time>2012-01-18T14:34:51Z</time>
      </trkpt>
      <trkpt lat="48.80102" lon="1.8445">
        <ele>74.64</ele>
        <time>2012-01-18T14:35:09Z</time>
      </trkpt>
      <trkpt lat="48.80096" lon="1.84406">
        <ele>74.64</ele>
        <time>2012-01-18T14:35:29Z</time>
      </trkpt>
      <trkpt lat="48.80091" lon="1.84369">
        <ele>73.68</ele>
        <time>2012-01-18T14:35:46Z</time>
      </trkpt>
      <trkpt lat="48.80085" lon="1.84325">
        <ele>73.2</ele>
        <time>2012-01-18T14:36:06Z</time>
      </trkpt>
      <trkpt lat="48.80081" lon="1.84285">
        <ele>73.68</ele>
        <time>2012-01-18T14:36:25Z</time>
      </trkpt>
      <trkpt lat="48.80079" lon="1.84244">
        <ele>74.16</ele>
        <time>2012-01-18T14:36:44Z</time>
      </trkpt>
      <trkpt lat="48.80079" lon="1.84205">
        <ele>74.64</ele>
        <time>2012-01-18T14:37:02Z</time>
      </trkpt>
      <trkpt lat="48.80079" lon="1.84167">
        <ele>75.12</ele>
        <time>2012-01-18T14:37:21Z</time>
      </trkpt>
      <trkpt lat="48.80079" lon="1.84164">
        <ele>75.12</ele>
        <time>2012-01-18T14:37:39Z</time>
      </trkpt>
      <trkpt lat="48.80079" lon="1.84157">
        <ele>74.64</ele>
        <time>2012-01-18T14:37:54Z</time>
      </trkpt>
      <trkpt lat="48.8008" lon="1.8414">
        <ele>74.64</ele>
        <time>2012-01-18T14:38:07Z</time>
      </trkpt>
      <trkpt lat="48.8008" lon="1.84128">
        <ele>75.12</ele>
        <time>2012-01-18T14:38:33Z</time>
      </trkpt>
      <trkpt lat="48.80081" lon="1.84095">
        <ele>75.6</ele>
        <time>2012-01-18T14:38:48Z</time>
      </trkpt>
      <trkpt lat="48.80082" lon="1.84056">
        <ele>75.6</ele>
        <time>2012-01-18T14:39:06Z</time>
      </trkpt>
      <trkpt lat="48.80082" lon="1.8402">
        <ele>76.08</ele>
        <time>2012-01-18T14:39:23Z</time>
      </trkpt>
      <trkpt lat="48.80083" lon="1.83981">
        <ele>76.56</ele>
        <time>2012-01-18T14:39:41Z</time>
      </trkpt>
      <trkpt lat="48.80084" lon="1.83943">
        <ele>77.04</ele>
        <time>2012-01-18T14:39:59Z</time>
      </trkpt>
      <trkpt lat="48.80086" lon="1.83906">
        <ele>77.52</ele>
        <time>2012-01-18T14:40:17Z</time>
      </trkpt>
      <trkpt lat="48.80087" lon="1.83866">
        <ele>78</ele>
        <time>2012-01-18T14:40:36Z</time>
      </trkpt>
      <trkpt lat="48.80089" lon="1.83828">
        <ele>78</ele>
        <time>2012-01-18T14:40:53Z</time>
      </trkpt>
      <trkpt lat="48.8009" lon="1.83788">
        <ele>78.48</ele>
        <time>2012-01-18T14:41:12Z</time>
      </trkpt>
      <trkpt lat="48.80092" lon="1.83754">
        <ele>77.52</ele>
        <time>2012-01-18T14:41:28Z</time>
      </trkpt>
      <trkpt lat="48.80093" lon="1.83713">
        <ele>77.52</ele>
        <time>2012-01-18T14:41:47Z</time>
      </trkpt>
      <trkpt lat="48.80094" lon="1.8367">
        <ele>78</ele>
        <time>2012-01-18T14:42:07Z</time>
      </trkpt>
      <trkpt lat="48.80096" lon="1.83627">
        <ele>78</ele>
        <time>2012-01-18T14:42:27Z</time>
      </trkpt>
      <trkpt lat="48.80097" lon="1.83586">
        <ele>78.48</ele>
        <time>2012-01-18T14:42:46Z</time>
      </trkpt>
      <trkpt lat="48.80099" lon="1.83543">
        <ele>78</ele>
        <time>2012-01-18T14:43:05Z</time>
      </trkpt>
      <trkpt lat="48.80101" lon="1.83503">
        <ele>78.48</ele>
        <time>2012-01-18T14:43:24Z</time>
      </trkpt>
      <trkpt lat="48.80101" lon="1.83482">
        <ele>78.48</ele>
        <time>2012-01-18T14:43:36Z</time>
      </trkpt>
      <trkpt lat="48.80102" lon="1.83442">
        <ele>78.48</ele>
        <time>2012-01-18T14:43:54Z</time>
      </trkpt>
      <trkpt lat="48.80104" lon="1.83408">
        <ele>78.97</ele>
        <time>2012-01-18T14:44:11Z</time>
      </trkpt>
      <trkpt lat="48.80105" lon="1.83365">
        <ele>79.93</ele>
        <time>2012-01-18T14:44:30Z</time>
      </trkpt>
      <trkpt lat="48.80108" lon="1.83329">
        <ele>81.85</ele>
        <time>2012-01-18T14:44:47Z</time>
      </trkpt>
      <trkpt lat="48.80108" lon="1.83289">
        <ele>83.77</ele>
        <time>2012-01-18T14:45:06Z</time>
      </trkpt>
      <trkpt lat="48.80109" lon="1.83253">
        <ele>83.29</ele>
        <time>2012-01-18T14:45:23Z</time>
      </trkpt>
      <trkpt lat="48.80109" lon="1.8322">
        <ele>82.33</ele>
        <time>2012-01-18T14:45:38Z</time>
      </trkpt>
      <trkpt lat="48.80113" lon="1.83187">
        <ele>83.29</ele>
        <time>2012-01-18T14:45:54Z</time>
      </trkpt>
      <trkpt lat="48.80114" lon="1.83152">
        <ele>83.29</ele>
        <time>2012-01-18T14:46:10Z</time>
      </trkpt>
      <trkpt lat="48.80115" lon="1.83123">
        <ele>83.77</ele>
        <time>2012-01-18T14:46:24Z</time>
      </trkpt>
      <trkpt lat="48.80116" lon="1.83089">
        <ele>85.21</ele>
        <time>2012-01-18T14:46:40Z</time>
      </trkpt>
      <trkpt lat="48.80116" lon="1.83058">
        <ele>84.73</ele>
        <time>2012-01-18T14:46:55Z</time>
      </trkpt>
      <trkpt lat="48.80118" lon="1.83039">
        <ele>84.73</ele>
        <time>2012-01-18T14:47:04Z</time>
      </trkpt>
      <trkpt lat="48.80124" lon="1.83029">
        <ele>84.25</ele>
        <time>2012-01-18T14:47:11Z</time>
      </trkpt>
      <trkpt lat="48.80119" lon="1.83008">
        <ele>83.77</ele>
        <time>2012-01-18T14:47:22Z</time>
      </trkpt>
      <trkpt lat="48.80119" lon="1.82974">
        <ele>85.21</ele>
        <time>2012-01-18T14:47:38Z</time>
      </trkpt>
      <trkpt lat="48.80121" lon="1.82946">
        <ele>86.18</ele>
        <time>2012-01-18T14:47:52Z</time>
      </trkpt>
      <trkpt lat="48.80121" lon="1.82909">
        <ele>86.18</ele>
        <time>2012-01-18T14:48:09Z</time>
      </trkpt>
      <trkpt lat="48.80122" lon="1.82886">
        <ele>84.25</ele>
        <time>2012-01-18T14:48:23Z</time>
      </trkpt>
      <trkpt lat="48.80123" lon="1.8286">
        <ele>84.25</ele>
        <time>2012-01-18T14:48:38Z</time>
      </trkpt>
      <trkpt lat="48.80124" lon="1.82846">
        <ele>84.25</ele>
        <time>2012-01-18T14:48:50Z</time>
      </trkpt>
      <trkpt lat="48.80123" lon="1.8284">
        <ele>84.25</ele>
        <time>2012-01-18T14:49:05Z</time>
      </trkpt>
      <trkpt lat="48.80125" lon="1.82814">
        <ele>85.69</ele>
        <time>2012-01-18T14:49:20Z</time>
      </trkpt>
      <trkpt lat="48.80126" lon="1.82788">
        <ele>84.25</ele>
        <time>2012-01-18T14:49:33Z</time>
      </trkpt>
      <trkpt lat="48.80127" lon="1.82761">
        <ele>84.73</ele>
        <time>2012-01-18T14:49:47Z</time>
      </trkpt>
      <trkpt lat="48.80128" lon="1.82733">
        <ele>84.73</ele>
        <time>2012-01-18T14:50:02Z</time>
      </trkpt>
      <trkpt lat="48.80128" lon="1.82703">
        <ele>85.69</ele>
        <time>2012-01-18T14:50:17Z</time>
      </trkpt>
      <trkpt lat="48.80129" lon="1.8267">
        <ele>85.21</ele>
        <time>2012-01-18T14:50:33Z</time>
      </trkpt>
      <trkpt lat="48.80131" lon="1.82635">
        <ele>86.66</ele>
        <time>2012-01-18T14:50:51Z</time>
      </trkpt>
      <trkpt lat="48.80132" lon="1.82605">
        <ele>86.66</ele>
        <time>2012-01-18T14:51:05Z</time>
      </trkpt>
      <trkpt lat="48.80133" lon="1.82579">
        <ele>86.18</ele>
        <time>2012-01-18T14:51:19Z</time>
      </trkpt>
      <trkpt lat="48.8014" lon="1.82573">
        <ele>85.21</ele>
        <time>2012-01-18T14:51:24Z</time>
      </trkpt>
      <trkpt lat="48.80167" lon="1.82578">
        <ele>83.77</ele>
        <time>2012-01-18T14:51:44Z</time>
      </trkpt>
      <trkpt lat="48.80188" lon="1.82586">
        <ele>84.25</ele>
        <time>2012-01-18T14:52:00Z</time>
      </trkpt>
      <trkpt lat="48.80208" lon="1.82592">
        <ele>84.25</ele>
        <time>2012-01-18T14:52:14Z</time>
      </trkpt>
      <trkpt lat="48.80227" lon="1.82598">
        <ele>83.29</ele>
        <time>2012-01-18T14:52:29Z</time>
      </trkpt>
      <trkpt lat="48.80247" lon="1.82606">
        <ele>83.77</ele>
        <time>2012-01-18T14:52:44Z</time>
      </trkpt>
      <trkpt lat="48.80265" lon="1.82614">
        <ele>83.77</ele>
        <time>2012-01-18T14:52:58Z</time>
      </trkpt>
      <trkpt lat="48.80277" lon="1.82618">
        <ele>83.77</ele>
        <time>2012-01-18T14:53:11Z</time>
      </trkpt>
      <trkpt lat="48.80291" lon="1.82614">
        <ele>82.33</ele>
        <time>2012-01-18T14:53:22Z</time>
      </trkpt>
      <trkpt lat="48.80291" lon="1.82591">
        <ele>83.29</ele>
        <time>2012-01-18T14:53:35Z</time>
      </trkpt>
      <trkpt lat="48.80286" lon="1.82575">
        <ele>83.29</ele>
        <time>2012-01-18T14:53:43Z</time>
      </trkpt>
      <trkpt lat="48.80284" lon="1.82572">
        <ele>83.29</ele>
        <time>2012-01-18T14:53:45Z</time>
      </trkpt>
      <trkpt lat="48.80278" lon="1.82554">
        <ele>83.29</ele>
        <time>2012-01-18T14:53:54Z</time>
      </trkpt>
      <trkpt lat="48.80266" lon="1.82527">
        <ele>83.29</ele>
        <time>2012-01-18T14:54:09Z</time>
      </trkpt>
      <trkpt lat="48.80257" lon="1.82503">
        <ele>83.77</ele>
        <time>2012-01-18T14:54:23Z</time>
      </trkpt>
      <trkpt lat="48.80252" lon="1.82471">
        <ele>84.25</ele>
        <time>2012-01-18T14:54:39Z</time>
      </trkpt>
      <trkpt lat="48.80249" lon="1.82435">
        <ele>83.77</ele>
        <time>2012-01-18T14:54:56Z</time>
      </trkpt>
      <trkpt lat="48.80249" lon="1.82395">
        <ele>84.25</ele>
        <time>2012-01-18T14:55:15Z</time>
      </trkpt>
      <trkpt lat="48.80248" lon="1.82359">
        <ele>84.25</ele>
        <time>2012-01-18T14:55:32Z</time>
      </trkpt>
      <trkpt lat="48.80247" lon="1.8232">
        <ele>84.25</ele>
        <time>2012-01-18T14:55:50Z</time>
      </trkpt>
      <trkpt lat="48.80247" lon="1.82278">
        <ele>84.25</ele>
        <time>2012-01-18T14:56:09Z</time>
      </trkpt>
      <trkpt lat="48.80246" lon="1.82241">
        <ele>84.73</ele>
        <time>2012-01-18T14:56:26Z</time>
      </trkpt>
      <trkpt lat="48.80247" lon="1.82234">
        <ele>84.25</ele>
        <time>2012-01-18T14:56:29Z</time>
      </trkpt>
      <trkpt lat="48.80247" lon="1.82226">
        <ele>84.73</ele>
        <time>2012-01-18T14:56:33Z</time>
      </trkpt>
      <trkpt lat="48.80246" lon="1.82186">
        <ele>85.21</ele>
        <time>2012-01-18T14:56:52Z</time>
      </trkpt>
      <trkpt lat="48.80245" lon="1.82151">
        <ele>85.21</ele>
        <time>2012-01-18T14:57:08Z</time>
      </trkpt>
      <trkpt lat="48.8025" lon="1.82113">
        <ele>84.73</ele>
        <time>2012-01-18T14:57:26Z</time>
      </trkpt>
      <trkpt lat="48.80253" lon="1.82093">
        <ele>84.73</ele>
        <time>2012-01-18T14:57:41Z</time>
      </trkpt>
      <trkpt lat="48.80255" lon="1.82076">
        <ele>84.25</ele>
        <time>2012-01-18T14:57:59Z</time>
      </trkpt>
      <trkpt lat="48.80259" lon="1.82046">
        <ele>84.73</ele>
        <time>2012-01-18T14:58:13Z</time>
      </trkpt>
      <trkpt lat="48.80262" lon="1.8203">
        <ele>83.77</ele>
        <time>2012-01-18T14:58:22Z</time>
      </trkpt>
      <trkpt lat="48.80268" lon="1.81991">
        <ele>83.29</ele>
        <time>2012-01-18T14:58:40Z</time>
      </trkpt>
      <trkpt lat="48.80269" lon="1.81979">
        <ele>83.29</ele>
        <time>2012-01-18T14:58:46Z</time>
      </trkpt>
      <trkpt lat="48.80272" lon="1.81962">
        <ele>84.25</ele>
        <time>2012-01-18T14:58:54Z</time>
      </trkpt>
      <trkpt lat="48.80277" lon="1.81946">
        <ele>84.73</ele>
        <time>2012-01-18T14:59:03Z</time>
      </trkpt>
      <trkpt lat="48.80283" lon="1.81927">
        <ele>87.14</ele>
        <time>2012-01-18T14:59:14Z</time>
      </trkpt>
      <trkpt lat="48.80288" lon="1.81906">
        <ele>87.62</ele>
        <time>2012-01-18T14:59:25Z</time>
      </trkpt>
      <trkpt lat="48.8029" lon="1.81879">
        <ele>87.62</ele>
        <time>2012-01-18T14:59:39Z</time>
      </trkpt>
      <trkpt lat="48.80293" lon="1.81851">
        <ele>89.06</ele>
        <time>2012-01-18T14:59:53Z</time>
      </trkpt>
      <trkpt lat="48.80303" lon="1.81821">
        <ele>90.5</ele>
        <time>2012-01-18T15:00:09Z</time>
      </trkpt>
      <trkpt lat="48.80305" lon="1.81815">
        <ele>92.42</ele>
        <time>2012-01-18T15:00:12Z</time>
      </trkpt>
      <trkpt lat="48.80308" lon="1.81809">
        <ele>90.5</ele>
        <time>2012-01-18T15:00:16Z</time>
      </trkpt>
      <trkpt lat="48.80319" lon="1.81777">
        <ele>83.29</ele>
        <time>2012-01-18T15:00:33Z</time>
      </trkpt>
      <trkpt lat="48.80328" lon="1.81751">
        <ele>81.37</ele>
        <time>2012-01-18T15:00:43Z</time>
      </trkpt>
      <trkpt lat="48.80329" lon="1.81728">
        <ele>80.41</ele>
        <time>2012-01-18T15:00:56Z</time>
      </trkpt>
      <trkpt lat="48.8033" lon="1.81719">
        <ele>81.37</ele>
        <time>2012-01-18T15:01:00Z</time>
      </trkpt>
      <trkpt lat="48.80337" lon="1.81701">
        <ele>83.77</ele>
        <time>2012-01-18T15:01:09Z</time>
      </trkpt>
      <trkpt lat="48.80339" lon="1.81682">
        <ele>87.62</ele>
        <time>2012-01-18T15:01:19Z</time>
      </trkpt>
      <trkpt lat="48.80349" lon="1.81648">
        <ele>89.06</ele>
        <time>2012-01-18T15:01:37Z</time>
      </trkpt>
      <trkpt lat="48.80351" lon="1.81645">
        <ele>89.54</ele>
        <time>2012-01-18T15:01:39Z</time>
      </trkpt>
      <trkpt lat="48.80352" lon="1.81637">
        <ele>90.5</ele>
        <time>2012-01-18T15:01:43Z</time>
      </trkpt>
      <trkpt lat="48.80351" lon="1.81626">
        <ele>89.54</ele>
        <time>2012-01-18T15:01:48Z</time>
      </trkpt>
      <trkpt lat="48.80349" lon="1.81606">
        <ele>92.42</ele>
        <time>2012-01-18T15:02:00Z</time>
      </trkpt>
      <trkpt lat="48.80351" lon="1.81596">
        <ele>94.35</ele>
        <time>2012-01-18T15:02:06Z</time>
      </trkpt>
      <trkpt lat="48.80349" lon="1.81593">
        <ele>93.39</ele>
        <time>2012-01-18T15:02:12Z</time>
      </trkpt>
      <trkpt lat="48.80344" lon="1.81589">
        <ele>93.87</ele>
        <time>2012-01-18T15:02:20Z</time>
      </trkpt>
      <trkpt lat="48.80347" lon="1.81593">
        <ele>93.87</ele>
        <time>2012-01-18T15:02:24Z</time>
      </trkpt>
      <trkpt lat="48.80347" lon="1.81586">
        <ele>93.39</ele>
        <time>2012-01-18T15:02:33Z</time>
      </trkpt>
      <trkpt lat="48.80341" lon="1.81576">
        <ele>92.42</ele>
        <time>2012-01-18T15:02:44Z</time>
      </trkpt>
      <trkpt lat="48.80328" lon="1.81564">
        <ele>93.39</ele>
        <time>2012-01-18T15:02:56Z</time>
      </trkpt>
      <trkpt lat="48.80315" lon="1.81561">
        <ele>93.39</ele>
        <time>2012-01-18T15:03:09Z</time>
      </trkpt>
      <trkpt lat="48.80314" lon="1.81561">
        <ele>92.42</ele>
        <time>2012-01-18T15:03:15Z</time>
      </trkpt>
      <trkpt lat="48.80308" lon="1.81563">
        <ele>92.42</ele>
        <time>2012-01-18T15:03:19Z</time>
      </trkpt>
      <trkpt lat="48.80288" lon="1.81575">
        <ele>92.42</ele>
        <time>2012-01-18T15:03:34Z</time>
      </trkpt>
      <trkpt lat="48.80283" lon="1.81578">
        <ele>92.42</ele>
        <time>2012-01-18T15:03:38Z</time>
      </trkpt>
      <trkpt lat="48.80255" lon="1.81591">
        <ele>91.94</ele>
        <time>2012-01-18T15:03:58Z</time>
      </trkpt>
      <trkpt lat="48.80249" lon="1.81607">
        <ele>91.46</ele>
        <time>2012-01-18T15:04:09Z</time>
      </trkpt>
      <trkpt lat="48.8025" lon="1.81607">
        <ele>91.94</ele>
        <time>2012-01-18T15:04:24Z</time>
      </trkpt>
      <trkpt lat="48.80248" lon="1.81605">
        <ele>92.42</ele>
        <time>2012-01-18T15:04:37Z</time>
      </trkpt>
      <trkpt lat="48.80243" lon="1.81603">
        <ele>93.87</ele>
        <time>2012-01-18T15:04:49Z</time>
      </trkpt>
      <trkpt lat="48.80237" lon="1.81592">
        <ele>89.54</ele>
        <time>2012-01-18T15:05:03Z</time>
      </trkpt>
      <trkpt lat="48.80244" lon="1.81571">
        <ele>89.06</ele>
        <time>2012-01-18T15:05:15Z</time>
      </trkpt>
      <trkpt lat="48.80248" lon="1.8157">
        <ele>88.58</ele>
        <time>2012-01-18T15:05:22Z</time>
      </trkpt>
      <trkpt lat="48.80248" lon="1.81565">
        <ele>88.1</ele>
        <time>2012-01-18T15:05:34Z</time>
      </trkpt>
      <trkpt lat="48.80248" lon="1.81565">
        <ele>88.1</ele>
        <time>2012-01-18T15:06:09Z</time>
      </trkpt>
      <trkpt lat="48.80248" lon="1.81565">
        <ele>88.1</ele>
        <time>2012-01-18T15:06:42Z</time>
      </trkpt>
      <trkpt lat="48.80248" lon="1.81565">
        <ele>87.62</ele>
        <time>2012-01-18T15:07:19Z</time>
      </trkpt>
    </trkseg>
  </trk>
</gpx>